Observation data for Caprock Canyons on 04/16/2021      Previous  Date  Next       Current Mesonet Observations  Soil Data  Daily Summary Page  Observations in Plain Language
KQU1 160500Z 14012KT 06/06 A2991 RMK A01 T00630062  RH  099%=      5-min Rain = 0
KQU1 160501Z 14010KT 06/06 A2991 RMK A01 T00630062  RH  099%=      5-min Rain = 0
KQU1 160502Z 14013KT 06/06 A2991 RMK A01 T00640062  RH  099%=      5-min Rain = 0
KQU1 160503Z 14013KT 06/06 A2991 RMK A01 T00640062  RH  099%=      5-min Rain = 0
KQU1 160504Z 14012KT 06/06 A2991 RMK A01 T00640062  RH  099%=      5-min Rain = 0
KQU1 160505Z 14010KT 06/06 A2991 RMK A01 T00640062  RH  099%=      5-min Rain = 0
KQU1 160506Z 15009KT 06/06 A2991 RMK A01 T00640062  RH  099%=      5-min Rain = 0
KQU1 160507Z 14011KT 06/06 A2991 RMK A01 T00640063  RH  099%=      5-min Rain = 0
KQU1 160508Z 15011KT 06/06 A2991 RMK A01 T00640063  RH  099%=      5-min Rain = 0
KQU1 160509Z 15010KT 06/06 A2991 RMK A01 T00640063  RH  099%=      5-min Rain = 0
KQU1 160510Z 15011KT 06/06 A2991 RMK A01 T00640063  RH  099%=      5-min Rain = 0
KQU1 160511Z 15011KT 06/06 A2991 RMK A01 T00640063  RH  099%=      5-min Rain = 0
KQU1 160512Z 15009KT 06/06 A2991 RMK A01 T00640063  RH  099%=      5-min Rain = 0
KQU1 160513Z 15009KT 06/06 A2991 RMK A01 T00640063  RH  099%=      5-min Rain = 0
KQU1 160514Z 14007KT 07/06 A2991 RMK A01 T00650063  RH  099%=      5-min Rain = 0
KQU1 160515Z 15007KT 07/06 A2991 RMK A01 T00650063  RH  099%=      5-min Rain = 0
KQU1 160516Z 15008KT 07/06 A2991 RMK A01 T00650063  RH  099%=      5-min Rain = 0
KQU1 160517Z 15008KT 07/06 A2991 RMK A01 T00650063  RH  099%=      5-min Rain = 0
KQU1 160518Z 15008KT 07/06 A2991 RMK A01 T00650063  RH  099%=      5-min Rain = 0
KQU1 160519Z 15010KT 07/06 A2991 RMK A01 T00650063  RH  099%=      5-min Rain = 0
KQU1 160520Z 15010KT 07/06 A299 RMK A01 T00650063  RH  099%=      5-min Rain = 0
KQU1 160521Z 14010KT 07/06 A299 RMK A01 T00650063  RH  099%=      5-min Rain = 0
KQU1 160522Z 14012KT 07/06 A299 RMK A01 T00650063  RH  099%=      5-min Rain = 0
KQU1 160523Z 14010KT 07/06 A299 RMK A01 T00650063  RH  099%=      5-min Rain = 0
KQU1 160524Z 14010KT 07/06 A299 RMK A01 T00650063  RH  099%=      5-min Rain = 0
KQU1 160525Z 15011KT 07/06 A299 RMK A01 T00650063  RH  099%=      5-min Rain = 0
KQU1 160526Z 15012KT 07/06 A299 RMK A01 T00650063  RH  099%=      5-min Rain = 0
KQU1 160527Z 14011KT 07/06 A299 RMK A01 T00650063  RH  099%=      5-min Rain = 0
KQU1 160528Z 14009KT 07/06 A299 RMK A01 T00650063  RH  099%=      5-min Rain = 0
KQU1 160529Z 14009KT 07/06 A299 RMK A01 T00650064  RH  099%=      5-min Rain = 0
KQU1 160530Z 14011KT 07/06 A2991 RMK A01 T00650064  RH  099%=      5-min Rain = 0
KQU1 160531Z 15008KT 07/06 A2991 RMK A01 T00650064  RH  099%=      5-min Rain = 0
KQU1 160532Z 14008KT 07/06 A2991 RMK A01 T00650064  RH  099%=      5-min Rain = 0
KQU1 160533Z 14010KT 07/06 A2991 RMK A01 T00650064  RH  099%=      5-min Rain = 0
KQU1 160534Z 15011KT 07/06 A2991 RMK A01 T00650064  RH  099%=      5-min Rain = 0
KQU1 160535Z 14010KT 07/06 A299 RMK A01 T00650063  RH  099%=      5-min Rain = 0
KQU1 160536Z 14009KT 07/06 A299 RMK A01 T00650063  RH  099%=      5-min Rain = 0
KQU1 160537Z 14010KT 07/06 A299 RMK A01 T00650063  RH  099%=      5-min Rain = 0
KQU1 160538Z 14010KT 07/06 A299 RMK A01 T00650064  RH  099%=      5-min Rain = 0
KQU1 160539Z 14011KT 07/06 A299 RMK A01 T00650063  RH  099%=      5-min Rain = 0
KQU1 160540Z 14010KT 07/06 A299 RMK A01 T00650063  RH  099%=      5-min Rain = 0
KQU1 160541Z 15010KT 07/06 A299 RMK A01 T00650063  RH  099%=      5-min Rain = 0
KQU1 160542Z 15009KT 07/06 A299 RMK A01 T00650063  RH  099%=      5-min Rain = 0
KQU1 160543Z 14009KT 07/06 A299 RMK A01 T00650064  RH  099%=      5-min Rain = 0
KQU1 160544Z 14009KT 07/06 A299 RMK A01 T00650064  RH  099%=      5-min Rain = 0
KQU1 160545Z 14010KT 07/06 A299 RMK A01 T00650064  RH  099%=      5-min Rain = 0
KQU1 160546Z 14010KT 07/06 A299 RMK A01 T00650064  RH  099%=      5-min Rain = 0
KQU1 160547Z 14009KT 07/06 A299 RMK A01 T00650064  RH  099%=      5-min Rain = 0
KQU1 160548Z 14010KT 07/06 A299 RMK A01 T00650064  RH  099%=      5-min Rain = 0
KQU1 160549Z 14009KT 07/06 A299 RMK A01 T00650064  RH  099%=      5-min Rain = 0
KQU1 160550Z 15009KT 07/06 A299 RMK A01 T00650064  RH  099%=      5-min Rain = 0
KQU1 160551Z 15008KT 07/06 A299 RMK A01 T00650064  RH  099%=      5-min Rain = 0
KQU1 160552Z 14008KT 07/06 A299 RMK A01 T00650064  RH  099%=      5-min Rain = 0
KQU1 160553Z 14011KT 07/06 A299 RMK A01 T00650064  RH  099%=      5-min Rain = 0
KQU1 160554Z 14010KT 07/06 A299 RMK A01 T00650064  RH  099%=      5-min Rain = 0
KQU1 160555Z 14010KT 07/06 A299 RMK A01 T00650064  RH  099%=      5-min Rain = 0
KQU1 160556Z 15011KT 07/06 A299 RMK A01 T00650064  RH  099%=      5-min Rain = 0
KQU1 160557Z 15011KT 07/06 A299 RMK A01 T00650064  RH  099%=      5-min Rain = 0
KQU1 160558Z 15009KT 07/06 A299 RMK A01 T00650063  RH  099%=      5-min Rain = 0
KQU1 160559Z 15011KT 07/06 A299 RMK A01 T00650064  RH  099%=      5-min Rain = 0
KQU1 160600Z 15011KT 07/06 A299 RMK A01 T00650063  RH  099%=      5-min Rain = 0
KQU1 160601Z 16010KT 07/06 A299 RMK A01 T00650063  RH  099%=      5-min Rain = 0
KQU1 160602Z 16010KT 07/06 A299 RMK A01 T00650064  RH  099%=      5-min Rain = 0
KQU1 160603Z 16010KT 07/06 A299 RMK A01 T00650063  RH  099%=      5-min Rain = 0
KQU1 160604Z 16010KT 07/06 A299 RMK A01 T00650063  RH  099%=      5-min Rain = 0
KQU1 160605Z 16009KT 07/06 A299 RMK A01 T00650063  RH  099%=      5-min Rain = 0
KQU1 160606Z 16009KT 07/06 A299 RMK A01 T00650063  RH  099%=      5-min Rain = 0
KQU1 160607Z 16009KT 06/06 A299 RMK A01 T00640063  RH  099%=      5-min Rain = 0
KQU1 160608Z 15009KT 07/06 A299 RMK A01 T00650063  RH  099%=      5-min Rain = 0
KQU1 160609Z 15008KT 07/06 A299 RMK A01 T00650064  RH  099%=      5-min Rain = 0
KQU1 160610Z 16010KT 07/06 A299 RMK A01 T00650064  RH  099%=      5-min Rain = 0
KQU1 160611Z 15010KT 07/06 A299 RMK A01 T00650064  RH  099%=      5-min Rain = 0
KQU1 160612Z 15009KT 07/06 A299 RMK A01 T00650063  RH  099%=      5-min Rain = 0
KQU1 160613Z 15010KT 07/06 A299 RMK A01 T00650063  RH  099%=      5-min Rain = 0.01
KQU1 160614Z 15009KT 07/06 A299 RMK A01 T00650064  RH  099%=      5-min Rain = 0
KQU1 160615Z 15008KT 07/06 A299 RMK A01 T00650064  RH  099%=      5-min Rain = 0
KQU1 160616Z 15009KT 07/06 A299 RMK A01 T00650064  RH  099%=      5-min Rain = 0
KQU1 160617Z 15008KT 07/06 A299 RMK A01 T00650064  RH  099%=      5-min Rain = 0
KQU1 160618Z 15008KT 07/06 A299 RMK A01 T00650064  RH  099%=      5-min Rain = 0
KQU1 160619Z 15008KT 07/06 A299 RMK A01 T00650064  RH  099%=      5-min Rain = 0
KQU1 160620Z 15007KT 07/06 A299 RMK A01 T00650064  RH  099%=      5-min Rain = 0
KQU1 160621Z 15007KT 07/06 A299 RMK A01 T00650064  RH  099%=      5-min Rain = 0
KQU1 160622Z 16008KT 07/06 A299 RMK A01 T00650064  RH  099%=      5-min Rain = 0
KQU1 160623Z 16007KT 07/06 A299 RMK A01 T00650064  RH  099%=      5-min Rain = 0
KQU1 160624Z 16008KT 07/06 A299 RMK A01 T00650064  RH  099%=      5-min Rain = 0
KQU1 160625Z 15007KT 07/06 A299 RMK A01 T00650064  RH  099%=      5-min Rain = 0
KQU1 160626Z 16007KT 07/06 A299 RMK A01 T00650064  RH  099%=      5-min Rain = 0
KQU1 160627Z 16008KT 07/06 A299 RMK A01 T00650064  RH  099%=      5-min Rain = 0
KQU1 160628Z 15008KT 07/06 A299 RMK A01 T00650064  RH  099%=      5-min Rain = 0
KQU1 160629Z 15007KT 07/06 A299 RMK A01 T00650064  RH  099%=      5-min Rain = 0
KQU1 160630Z 15007KT 07/06 A299 RMK A01 T00650064  RH  099%=      5-min Rain = 0
KQU1 160631Z 15008KT 07/06 A299 RMK A01 T00650064  RH  099%=      5-min Rain = 0
KQU1 160632Z 15009KT 07/06 A299 RMK A01 T00650064  RH  099%=      5-min Rain = 0
KQU1 160633Z 15009KT 07/06 A299 RMK A01 T00650064  RH  099%=      5-min Rain = 0
KQU1 160634Z 15008KT 07/06 A299 RMK A01 T00650064  RH  099%=      5-min Rain = 0
KQU1 160635Z 15008KT 07/06 A299 RMK A01 T00650064  RH  099%=      5-min Rain = 0
KQU1 160636Z 15008KT 07/06 A299 RMK A01 T00650064  RH  099%=      5-min Rain = 0
KQU1 160637Z 15007KT 07/06 A299 RMK A01 T00650064  RH  099%=      5-min Rain = 0
KQU1 160638Z 15008KT 07/06 A299 RMK A01 T00650064  RH  099%=      5-min Rain = 0
KQU1 160639Z 15008KT 07/06 A299 RMK A01 T00650064  RH  099%=      5-min Rain = 0
KQU1 160640Z 15008KT 07/06 A299 RMK A01 T00650064  RH  099%=      5-min Rain = 0
KQU1 160641Z 15008KT 07/06 A299 RMK A01 T00650064  RH  099%=      5-min Rain = 0
KQU1 160642Z 15007KT 07/06 A299 RMK A01 T00650064  RH  099%=      5-min Rain = 0
KQU1 160643Z 15007KT 07/06 A299 RMK A01 T00650064  RH  099%=      5-min Rain = 0
KQU1 160644Z 15007KT 07/06 A299 RMK A01 T00650064  RH  099%=      5-min Rain = 0
KQU1 160645Z 15007KT 07/06 A299 RMK A01 T00650064  RH  099%=      5-min Rain = 0
KQU1 160646Z 15007KT 07/06 A299 RMK A01 T00650064  RH  099%=      5-min Rain = 0
KQU1 160647Z 15007KT 07/06 A299 RMK A01 T00650064  RH  099%=      5-min Rain = 0
KQU1 160648Z 15006KT 07/06 A2989 RMK A01 T00650064  RH  099%=      5-min Rain = 0
KQU1 160649Z 14005KT 07/06 A2989 RMK A01 T00650064  RH  099%=      5-min Rain = 0
KQU1 160650Z 15006KT 07/07 A2989 RMK A01 T00660065  RH  099%=      5-min Rain = 0
KQU1 160651Z 14006KT 07/07 A2989 RMK A01 T00660065  RH  099%=      5-min Rain = 0
KQU1 160652Z 15007KT 07/07 A2989 RMK A01 T00660065  RH  099%=      5-min Rain = 0
KQU1 160653Z 14007KT 07/07 A2989 RMK A01 T00660065  RH  099%=      5-min Rain = 0
KQU1 160654Z 15007KT 07/07 A2989 RMK A01 T00660065  RH  099%=      5-min Rain = 0
KQU1 160655Z 15007KT 07/07 A2989 RMK A01 T00660065  RH  099%=      5-min Rain = 0
KQU1 160656Z 15007KT 07/07 A2989 RMK A01 T00660065  RH  099%=      5-min Rain = 0
KQU1 160657Z 15007KT 07/07 A2989 RMK A01 T00660065  RH  099%=      5-min Rain = 0
KQU1 160658Z 15007KT 07/07 A2989 RMK A01 T00660065  RH  099%=      5-min Rain = 0
KQU1 160659Z 15007KT 07/07 A2989 RMK A01 T00660065  RH  099%=      5-min Rain = 0
KQU1 160700Z 15006KT 07/07 A2989 RMK A01 T00660065  RH  099%=      5-min Rain = 0
KQU1 160701Z 15007KT 07/07 A2989 RMK A01 T00660065  RH  099%=      5-min Rain = 0
KQU1 160702Z 15006KT 07/07 A2989 RMK A01 T00660065  RH  099%=      5-min Rain = 0
KQU1 160703Z 15006KT 07/07 A2989 RMK A01 T00660065  RH  099%=      5-min Rain = 0
KQU1 160704Z 15006KT 07/07 A2989 RMK A01 T00660065  RH  099%=      5-min Rain = 0
KQU1 160705Z 15007KT 07/07 A2989 RMK A01 T00660065  RH  099%=      5-min Rain = 0
KQU1 160706Z 14008KT 07/07 A2989 RMK A01 T00660065  RH  099%=      5-min Rain = 0
KQU1 160707Z 15008KT 07/07 A2988 RMK A01 T00660065  RH  099%=      5-min Rain = 0
KQU1 160708Z 15007KT 07/07 A2988 RMK A01 T00660065  RH  099%=      5-min Rain = 0
KQU1 160709Z 14007KT 07/07 A2988 RMK A01 T00660065  RH  099%=      5-min Rain = 0
KQU1 160710Z 15007KT 07/07 A2988 RMK A01 T00660065  RH  099%=      5-min Rain = 0
KQU1 160711Z 15006KT 07/07 A2988 RMK A01 T00660065  RH  099%=      5-min Rain = 0
KQU1 160712Z 14006KT 07/07 A2988 RMK A01 T00660065  RH  099%=      5-min Rain = 0
KQU1 160713Z 14008KT 07/07 A2988 RMK A01 T00660065  RH  099%=      5-min Rain = 0
KQU1 160714Z 14007KT 07/07 A2988 RMK A01 T00660065  RH  099%=      5-min Rain = 0
KQU1 160715Z 14007KT 07/07 A2988 RMK A01 T00660065  RH  099%=      5-min Rain = 0
KQU1 160716Z 14007KT 07/07 A2988 RMK A01 T00660065  RH  099%=      5-min Rain = 0
KQU1 160717Z 15007KT 07/07 A2988 RMK A01 T00660065  RH  099%=      5-min Rain = 0
KQU1 160718Z 14006KT 07/07 A2988 RMK A01 T00660065  RH  099%=      5-min Rain = 0
KQU1 160719Z 14007KT 07/07 A2988 RMK A01 T00660065  RH  099%=      5-min Rain = 0
KQU1 160720Z 14006KT 07/07 A2988 RMK A01 T00660065  RH  099%=      5-min Rain = 0
KQU1 160721Z 13005KT 07/07 A2988 RMK A01 T00660065  RH  099%=      5-min Rain = 0
KQU1 160722Z 13005KT 07/07 A2988 RMK A01 T00660065  RH  099%=      5-min Rain = 0
KQU1 160723Z 12005KT 07/07 A2988 RMK A01 T00660065  RH  099%=      5-min Rain = 0
KQU1 160724Z 11005KT 07/07 A2988 RMK A01 T00660065  RH  099%=      5-min Rain = 0
KQU1 160725Z 12006KT 07/07 A2988 RMK A01 T00660065  RH  099%=      5-min Rain = 0
KQU1 160726Z 12005KT 07/07 A2988 RMK A01 T00660065  RH  099%=      5-min Rain = 0
KQU1 160727Z 12005KT 07/07 A2988 RMK A01 T00660065  RH  099%=      5-min Rain = 0
KQU1 160728Z 11004KT 07/07 A2989 RMK A01 T00660065  RH  099%=      5-min Rain = 0
KQU1 160729Z 08003KT 07/07 A2989 RMK A01 T00670066  RH  099%=      5-min Rain = 0
KQU1 160730Z 09004KT 07/07 A2989 RMK A01 T00670066  RH  099%=      5-min Rain = 0
KQU1 160731Z 08004KT 07/07 A2989 RMK A01 T00670066  RH  099%=      5-min Rain = 0
KQU1 160732Z 09004KT 07/07 A2989 RMK A01 T00670066  RH  099%=      5-min Rain = 0
KQU1 160733Z 08003KT 07/07 A2989 RMK A01 T00670066  RH  099%=      5-min Rain = 0
KQU1 160734Z 08004KT 07/07 A2989 RMK A01 T00670066  RH  099%=      5-min Rain = 0
KQU1 160735Z 07004KT 07/07 A299 RMK A01 T00670066  RH  099%=      5-min Rain = 0
KQU1 160736Z 07003KT 07/07 A299 RMK A01 T00670066  RH  099%=      5-min Rain = 0
KQU1 160737Z 05003KT 07/07 A299 RMK A01 T00670066  RH  099%=      5-min Rain = 0
KQU1 160738Z 03004KT 07/07 A299 RMK A01 T00670066  RH  099%=      5-min Rain = 0
KQU1 160739Z 02004KT 07/07 A299 RMK A01 T00670066  RH  099%=      5-min Rain = 0
KQU1 160740Z 01005KT 07/07 A2991 RMK A01 T00670066  RH  099%=      5-min Rain = 0
KQU1 160741Z 01007KT 07/07 A2991 RMK A01 T00670066  RH  099%=      5-min Rain = 0
KQU1 160742Z 01008KT 07/07 A2991 RMK A01 T00670066  RH  099%=      5-min Rain = 0
KQU1 160743Z 01008KT 07/07 A2991 RMK A01 T00660065  RH  099%=      5-min Rain = 0
KQU1 160744Z 01008KT 07/07 A2991 RMK A01 T00660065  RH  099%=      5-min Rain = 0
KQU1 160745Z 02007KT 07/07 A2991 RMK A01 T00660065  RH  099%=      5-min Rain = 0
KQU1 160746Z 02005KT 07/07 A2991 RMK A01 T00660065  RH  099%=      5-min Rain = 0
KQU1 160747Z 03005KT 07/07 A2991 RMK A01 T00660065  RH  099%=      5-min Rain = 0
KQU1 160748Z 03005KT 07/07 A2991 RMK A01 T00660065  RH  099%=      5-min Rain = 0
KQU1 160749Z 05001KT 07/07 A2991 RMK A01 T00670066  RH  099%=      5-min Rain = 0
KQU1 160750Z 04003KT 07/07 A2991 RMK A01 T00670066  RH  099%=      5-min Rain = 0.01
KQU1 160751Z 05005KT 07/07 A2991 RMK A01 T00670066  RH  099%=      5-min Rain = 0
KQU1 160752Z 04004KT 07/07 A2991 RMK A01 T00670066  RH  099%=      5-min Rain = 0
KQU1 160753Z 03006KT 07/07 A2991 RMK A01 T00670066  RH  099%=      5-min Rain = 0
KQU1 160754Z 02003KT 07/07 A2991 RMK A01 T00670066  RH  099%=      5-min Rain = 0
KQU1 160755Z 02004KT 07/07 A2991 RMK A01 T00670066  RH  099%=      5-min Rain = 0
KQU1 160756Z 01005KT 07/07 A2992 RMK A01 T00670066  RH  099%=      5-min Rain = 0
KQU1 160757Z 02006KT 07/07 A2991 RMK A01 T00670066  RH  099%=      5-min Rain = 0
KQU1 160758Z 04005KT 07/07 A2991 RMK A01 T00660065  RH  099%=      5-min Rain = 0
KQU1 160759Z 04003KT 07/07 A2991 RMK A01 T00660065  RH  099%=      5-min Rain = 0
KQU1 160800Z 02003KT 07/07 A2991 RMK A01 T00670066  RH  099%=      5-min Rain = 0
KQU1 160801Z 01004KT 07/07 A2991 RMK A01 T00670066  RH  099%=      5-min Rain = 0
KQU1 160802Z 02005KT 07/07 A2991 RMK A01 T00670066  RH  099%=      5-min Rain = 0
KQU1 160803Z 01006KT 07/07 A2991 RMK A01 T00670066  RH  099%=      5-min Rain = 0
KQU1 160804Z 01007KT 07/07 A2991 RMK A01 T00670066  RH  099%=      5-min Rain = 0
KQU1 160805Z 01006KT 07/07 A2992 RMK A01 T00670066  RH  099%=      5-min Rain = 0
KQU1 160806Z 02007KT 07/07 A2991 RMK A01 T00670066  RH  099%=      5-min Rain = 0
KQU1 160807Z 02006KT 07/07 A2991 RMK A01 T00660065  RH  099%=      5-min Rain = 0.01
KQU1 160808Z 02006KT 07/07 A2991 RMK A01 T00670066  RH  099%=      5-min Rain = 0
KQU1 160809Z 02007KT 07/07 A2991 RMK A01 T00660065  RH  099%=      5-min Rain = 0
KQU1 160810Z 03005KT 07/07 A2991 RMK A01 T00660065  RH  099%=      5-min Rain = 0
KQU1 160811Z 04005KT 07/07 A2991 RMK A01 T00660065  RH  099%=      5-min Rain = 0
KQU1 160812Z 05006KT 07/07 A299 RMK A01 T00660065  RH  099%=      5-min Rain = 0
KQU1 160813Z 03006KT 07/06 A299 RMK A01 T00650064  RH  099%=      5-min Rain = 0
KQU1 160814Z 03006G11KT 07/06 A2991 RMK A01 T00650064  RH  099%=      5-min Rain = 0
KQU1 160815Z 03008KT 06/06 A2991 RMK A01 T00640063  RH  099%=      5-min Rain = 0
KQU1 160816Z 03009KT 06/06 A2991 RMK A01 T00630062  RH  099%=      5-min Rain = 0
KQU1 160817Z 03009G14KT 06/06 A2991 RMK A01 T00630062  RH  099%=      5-min Rain = 0
KQU1 160818Z 04006KT 06/06 A2991 RMK A01 T00630061  RH  099%=      5-min Rain = 0
KQU1 160819Z 03008KT 06/06 A2991 RMK A01 T00620061  RH  099%=      5-min Rain = 0
KQU1 160820Z 04005KT 06/06 A2991 RMK A01 T00620061  RH  099%=      5-min Rain = 0
KQU1 160821Z 04006KT 06/06 A2991 RMK A01 T00620061  RH  099%=      5-min Rain = 0
KQU1 160822Z 02007KT 06/06 A2991 RMK A01 T00620060  RH  099%=      5-min Rain = 0
KQU1 160823Z 02007KT 06/06 A2992 RMK A01 T00620061  RH  099%=      5-min Rain = 0
KQU1 160824Z 02008KT 06/06 A2992 RMK A01 T00620061  RH  099%=      5-min Rain = 0
KQU1 160825Z 02009KT 06/06 A2992 RMK A01 T00610060  RH  099%=      5-min Rain = 0
KQU1 160826Z 02009KT 06/06 A2992 RMK A01 T00610060  RH  099%=      5-min Rain = 0
KQU1 160827Z 02007KT 06/06 A2992 RMK A01 T00610060  RH  099%=      5-min Rain = 0
KQU1 160828Z 03006KT 06/06 A2992 RMK A01 T00610060  RH  099%=      5-min Rain = 0
KQU1 160829Z 02006KT 06/06 A2992 RMK A01 T00610060  RH  099%=      5-min Rain = 0
KQU1 160830Z 03006KT 06/06 A2992 RMK A01 T00610060  RH  099%=      5-min Rain = 0
KQU1 160831Z 02005G10KT 06/06 A2992 RMK A01 T00610060  RH  099%=      5-min Rain = 0
KQU1 160832Z 02006KT 06/06 A2992 RMK A01 T00610060  RH  099%=      5-min Rain = 0
KQU1 160833Z 03006KT 06/06 A2992 RMK A01 T00610060  RH  099%=      5-min Rain = 0
KQU1 160834Z 03007KT 06/06 A2991 RMK A01 T00610060  RH  099%=      5-min Rain = 0
KQU1 160835Z 02009KT 06/06 A2991 RMK A01 T00610060  RH  099%=      5-min Rain = 0
KQU1 160836Z 03007KT 06/06 A2991 RMK A01 T00600059  RH  099%=      5-min Rain = 0
KQU1 160837Z 02009KT 06/06 A2992 RMK A01 T00600059  RH  099%=      5-min Rain = 0.01
KQU1 160838Z 04006KT 06/06 A2992 RMK A01 T00600059  RH  099%=      5-min Rain = 0
KQU1 160839Z 03009KT 06/06 A2992 RMK A01 T00600059  RH  099%=      5-min Rain = 0
KQU1 160840Z 02007KT 06/06 A2992 RMK A01 T00600059  RH  099%=      5-min Rain = 0
KQU1 160841Z 03010KT 06/06 A2992 RMK A01 T00600058  RH  099%=      5-min Rain = 0
KQU1 160842Z 03011KT 06/06 A2992 RMK A01 T00590058  RH  099%=      5-min Rain = 0
KQU1 160843Z 02009KT 06/06 A2992 RMK A01 T00590058  RH  099%=      5-min Rain = 0
KQU1 160844Z 02009KT 06/06 A2992 RMK A01 T00590058  RH  099%=      5-min Rain = 0
KQU1 160845Z 03011KT 06/06 A2992 RMK A01 T00590058  RH  099%=      5-min Rain = 0
KQU1 160846Z 02008KT 06/06 A2992 RMK A01 T00590058  RH  099%=      5-min Rain = 0
KQU1 160847Z 03010KT 06/06 A2992 RMK A01 T00590058  RH  099%=      5-min Rain = 0
KQU1 160848Z 02006KT 06/06 A2992 RMK A01 T00590058  RH  099%=      5-min Rain = 0
KQU1 160849Z 02006KT 06/06 A2992 RMK A01 T00590058  RH  099%=      5-min Rain = 0
KQU1 160850Z 03007KT 06/06 A2992 RMK A01 T00590058  RH  099%=      5-min Rain = 0
KQU1 160851Z 03007G12KT 06/06 A2992 RMK A01 T00590058  RH  099%=      5-min Rain = 0
KQU1 160852Z 02005KT 06/06 A2992 RMK A01 T00590058  RH  099%=      5-min Rain = 0
KQU1 160853Z 02007KT 06/06 A2992 RMK A01 T00590058  RH  099%=      5-min Rain = 0
KQU1 160854Z 02010KT 06/06 A2992 RMK A01 T00590058  RH  099%=      5-min Rain = 0
KQU1 160855Z 02005KT 06/06 A2992 RMK A01 T00590058  RH  099%=      5-min Rain = 0
KQU1 160856Z 02006KT 06/06 A2992 RMK A01 T00590058  RH  099%=      5-min Rain = 0
KQU1 160857Z 03009KT 06/06 A2992 RMK A01 T00590058  RH  099%=      5-min Rain = 0
KQU1 160858Z 02007KT 06/06 A2992 RMK A01 T00590058  RH  099%=      5-min Rain = 0
KQU1 160859Z 02007KT 06/06 A2992 RMK A01 T00590058  RH  099%=      5-min Rain = 0
KQU1 160900Z 02008KT 06/06 A2992 RMK A01 T00590058  RH  099%=      5-min Rain = 0
KQU1 160901Z 03007KT 06/06 A2992 RMK A01 T00590058  RH  099%=      5-min Rain = 0
KQU1 160902Z 03009KT 06/06 A2992 RMK A01 T00590058  RH  099%=      5-min Rain = 0
KQU1 160903Z 03005KT 06/06 A2992 RMK A01 T00590058  RH  099%=      5-min Rain = 0
KQU1 160904Z 02007KT 06/06 A2992 RMK A01 T00590058  RH  099%=      5-min Rain = 0
KQU1 160905Z 02008KT 06/06 A2992 RMK A01 T00590058  RH  099%=      5-min Rain = 0
KQU1 160906Z 02008KT 06/06 A2992 RMK A01 T00590058  RH  099%=      5-min Rain = 0
KQU1 160907Z 02005KT 06/06 A2992 RMK A01 T00590058  RH  099%=      5-min Rain = 0
KQU1 160908Z 02005KT 06/06 A2992 RMK A01 T00590058  RH  099%=      5-min Rain = 0
KQU1 160909Z 02006KT 06/06 A2992 RMK A01 T00590058  RH  099%=      5-min Rain = 0
KQU1 160910Z 03008KT 06/06 A2992 RMK A01 T00590058  RH  099%=      5-min Rain = 0
KQU1 160911Z 03005KT 06/06 A2992 RMK A01 T00590058  RH  099%=      5-min Rain = 0
KQU1 160912Z 02004KT 06/06 A2991 RMK A01 T00590058  RH  099%=      5-min Rain = 0
KQU1 160913Z 02007KT 06/06 A2992 RMK A01 T00590058  RH  099%=      5-min Rain = 0
KQU1 160914Z 02007KT 06/06 A2991 RMK A01 T00590058  RH  099%=      5-min Rain = 0
KQU1 160915Z 03005KT 06/06 A2991 RMK A01 T00590058  RH  099%=      5-min Rain = 0
KQU1 160916Z 03004KT 06/06 A2991 RMK A01 T00590058  RH  099%=      5-min Rain = 0
KQU1 160917Z 02005KT 06/06 A2991 RMK A01 T00590058  RH  099%=      5-min Rain = 0
KQU1 160918Z 02005KT 06/06 A2991 RMK A01 T00590058  RH  099%=      5-min Rain = 0
KQU1 160919Z 02006KT 06/06 A2991 RMK A01 T00590058  RH  099%=      5-min Rain = 0
KQU1 160920Z 03007KT 06/06 A2992 RMK A01 T00590058  RH  099%=      5-min Rain = 0
KQU1 160921Z 02006KT 06/06 A2992 RMK A01 T00590058  RH  099%=      5-min Rain = 0
KQU1 160922Z 02007KT 06/06 A2991 RMK A01 T00590058  RH  099%=      5-min Rain = 0
KQU1 160923Z 03005KT 06/06 A2991 RMK A01 T00590058  RH  099%=      5-min Rain = 0
KQU1 160924Z 03006G11KT 06/06 A2991 RMK A01 T00590058  RH  099%=      5-min Rain = 0
KQU1 160925Z 03006KT 06/06 A2991 RMK A01 T00590058  RH  099%=      5-min Rain = 0
KQU1 160926Z 03006KT 06/06 A2991 RMK A01 T00590058  RH  099%=      5-min Rain = 0
KQU1 160927Z 03008KT 06/06 A2991 RMK A01 T00590058  RH  099%=      5-min Rain = 0
KQU1 160928Z 02007KT 06/06 A2991 RMK A01 T00590058  RH  099%=      5-min Rain = 0
KQU1 160929Z 03006KT 06/06 A2991 RMK A01 T00590058  RH  099%=      5-min Rain = 0
KQU1 160930Z 03006KT 06/06 A2991 RMK A01 T00590058  RH  099%=      5-min Rain = 0
KQU1 160931Z 03007KT 06/06 A2991 RMK A01 T00590058  RH  099%=      5-min Rain = 0
KQU1 160932Z 02008KT 06/06 A2991 RMK A01 T00590058  RH  099%=      5-min Rain = 0
KQU1 160933Z 03007KT 06/06 A2991 RMK A01 T00590058  RH  099%=      5-min Rain = 0.01
KQU1 160934Z 03006KT 06/06 A2992 RMK A01 T00590058  RH  099%=      5-min Rain = 0
KQU1 160935Z 03007KT 06/06 A2992 RMK A01 T00590058  RH  099%=      5-min Rain = 0
KQU1 160936Z 03005KT 06/06 A2992 RMK A01 T00590058  RH  099%=      5-min Rain = 0
KQU1 160937Z 02006G11KT 06/06 A2992 RMK A01 T00590058  RH  099%=      5-min Rain = 0
KQU1 160938Z 02006KT 06/06 A2992 RMK A01 T00590058  RH  099%=      5-min Rain = 0
KQU1 160939Z 02007KT 06/06 A2992 RMK A01 T00590058  RH  099%=      5-min Rain = 0
KQU1 160940Z 02008KT 06/06 A2992 RMK A01 T00590058  RH  099%=      5-min Rain = 0
KQU1 160941Z 03008KT 06/06 A2992 RMK A01 T00590058  RH  099%=      5-min Rain = 0
KQU1 160942Z 03008KT 06/06 A2992 RMK A01 T00590058  RH  099%=      5-min Rain = 0
KQU1 160943Z 02006KT 06/06 A2992 RMK A01 T00590058  RH  099%=      5-min Rain = 0
KQU1 160944Z 02005KT 06/06 A2992 RMK A01 T00590058  RH  099%=      5-min Rain = 0
KQU1 160945Z 03007KT 06/06 A2992 RMK A01 T00590058  RH  099%=      5-min Rain = 0
KQU1 160946Z 03008KT 06/06 A2992 RMK A01 T00590058  RH  099%=      5-min Rain = 0
KQU1 160947Z 02007KT 06/06 A2992 RMK A01 T00590058  RH  099%=      5-min Rain = 0
KQU1 160948Z 03008KT 06/06 A2992 RMK A01 T00590058  RH  099%=      5-min Rain = 0
KQU1 160949Z 03008G13KT 06/06 A2992 RMK A01 T00590058  RH  099%=      5-min Rain = 0
KQU1 160950Z 02007KT 06/06 A2992 RMK A01 T00590058  RH  099%=      5-min Rain = 0
KQU1 160951Z 03008KT 06/06 A2991 RMK A01 T00590058  RH  099%=      5-min Rain = 0
KQU1 160952Z 03009KT 06/06 A2991 RMK A01 T00590058  RH  099%=      5-min Rain = 0
KQU1 160953Z 02008KT 06/06 A2991 RMK A01 T00590058  RH  099%=      5-min Rain = 0
KQU1 160954Z 02008KT 06/06 A2991 RMK A01 T00590058  RH  099%=      5-min Rain = 0
KQU1 160955Z 03009KT 06/06 A2992 RMK A01 T00590058  RH  099%=      5-min Rain = 0
KQU1 160956Z 02007KT 06/06 A2991 RMK A01 T00590058  RH  099%=      5-min Rain = 0
KQU1 160957Z 02006KT 06/06 A2991 RMK A01 T00590058  RH  099%=      5-min Rain = 0
KQU1 160958Z 03008KT 06/06 A2991 RMK A01 T00590058  RH  099%=      5-min Rain = 0
KQU1 160959Z 03005KT 06/06 A2991 RMK A01 T00590058  RH  099%=      5-min Rain = 0
KQU1 161000Z 03006KT 06/06 A2991 RMK A01 T00600059  RH  099%=      5-min Rain = 0
KQU1 161001Z 03009KT 06/06 A2991 RMK A01 T00590058  RH  099%=      5-min Rain = 0
KQU1 161002Z 03007KT 06/06 A2991 RMK A01 T00590058  RH  099%=      5-min Rain = 0
KQU1 161003Z 03007KT 06/06 A2991 RMK A01 T00590058  RH  099%=      5-min Rain = 0
KQU1 161004Z 03005KT 06/06 A2991 RMK A01 T00590058  RH  099%=      5-min Rain = 0
KQU1 161005Z 03007KT 06/06 A2991 RMK A01 T00590058  RH  099%=      5-min Rain = 0
KQU1 161006Z 02008KT 06/06 A2991 RMK A01 T00590058  RH  099%=      5-min Rain = 0
KQU1 161007Z 02007G12KT 06/06 A2991 RMK A01 T00590058  RH  099%=      5-min Rain = 0
KQU1 161008Z 02008KT 06/06 A2991 RMK A01 T00590058  RH  099%=      5-min Rain = 0
KQU1 161009Z 03007KT 06/06 A2991 RMK A01 T00590058  RH  099%=      5-min Rain = 0
KQU1 161010Z 03006KT 06/06 A2991 RMK A01 T00590058  RH  099%=      5-min Rain = 0
KQU1 161011Z 03007KT 06/06 A2991 RMK A01 T00590059  RH  099%=      5-min Rain = 0
KQU1 161012Z 03007KT 06/06 A2991 RMK A01 T00590059  RH  099%=      5-min Rain = 0
KQU1 161013Z 03007KT 06/06 A2991 RMK A01 T00600059  RH  099%=      5-min Rain = 0
KQU1 161014Z 03006KT 06/06 A2991 RMK A01 T00600059  RH  099%=      5-min Rain = 0
KQU1 161015Z 03009KT 06/06 A2991 RMK A01 T00600059  RH  099%=      5-min Rain = 0
KQU1 161016Z 03007KT 06/06 A2991 RMK A01 T00600059  RH  099%=      5-min Rain = 0
KQU1 161017Z 03009KT 06/06 A2991 RMK A01 T00600059  RH  099%=      5-min Rain = 0
KQU1 161018Z 03008KT 06/06 A2991 RMK A01 T00600059  RH  099%=      5-min Rain = 0
KQU1 161019Z 04007KT 06/06 A2991 RMK A01 T00600059  RH  099%=      5-min Rain = 0
KQU1 161020Z 03005KT 06/06 A2991 RMK A01 T00600059  RH  099%=      5-min Rain = 0
KQU1 161021Z 04006KT 06/06 A2991 RMK A01 T00600059  RH  099%=      5-min Rain = 0
KQU1 161022Z 04004KT 06/06 A2991 RMK A01 T00600059  RH  099%=      5-min Rain = 0
KQU1 161023Z 03007KT 06/06 A2991 RMK A01 T00600059  RH  099%=      5-min Rain = 0
KQU1 161024Z 03005KT 06/06 A2991 RMK A01 T00600059  RH  099%=      5-min Rain = 0
KQU1 161025Z 04004G9KT 06/06 A2991 RMK A01 T00600059  RH  099%=      5-min Rain = 0
KQU1 161026Z 03004KT 06/06 A2991 RMK A01 T00600059  RH  099%=      5-min Rain = 0
KQU1 161027Z 04006KT 06/06 A2991 RMK A01 T00600059  RH  099%=      5-min Rain = 0
KQU1 161028Z 03007KT 06/06 A2991 RMK A01 T00600059  RH  099%=      5-min Rain = 0
KQU1 161029Z 04004KT 06/06 A2991 RMK A01 T00600059  RH  099%=      5-min Rain = 0
KQU1 161030Z 02005KT 06/06 A2991 RMK A01 T00600059  RH  099%=      5-min Rain = 0
KQU1 161031Z 03007KT 06/06 A2991 RMK A01 T00600059  RH  099%=      5-min Rain = 0
KQU1 161032Z 02005KT 06/06 A2991 RMK A01 T00600059  RH  099%=      5-min Rain = 0
KQU1 161033Z 03005KT 06/06 A2991 RMK A01 T00600059  RH  099%=      5-min Rain = 0
KQU1 161034Z 04004KT 06/06 A2991 RMK A01 T00600059  RH  099%=      5-min Rain = 0
KQU1 161035Z 03004KT 06/06 A2991 RMK A01 T00600059  RH  099%=      5-min Rain = 0
KQU1 161036Z 06004KT 06/06 A2991 RMK A01 T00600059  RH  099%=      5-min Rain = 0
KQU1 161037Z 04005KT 06/06 A2991 RMK A01 T00600059  RH  099%=      5-min Rain = 0
KQU1 161038Z 06005KT 06/06 A2991 RMK A01 T00600059  RH  099%=      5-min Rain = 0
KQU1 161039Z 04003KT 06/06 A2991 RMK A01 T00600059  RH  099%=      5-min Rain = 0
KQU1 161040Z 03004KT 06/06 A2991 RMK A01 T00600059  RH  099%=      5-min Rain = 0
KQU1 161041Z 05003KT 06/06 A299 RMK A01 T00600059  RH  099%=      5-min Rain = 0
KQU1 161042Z 03004KT 06/06 A299 RMK A01 T00600059  RH  099%=      5-min Rain = 0
KQU1 161043Z 05003KT 06/06 A299 RMK A01 T00600059  RH  099%=      5-min Rain = 0
KQU1 161044Z 03005KT 06/06 A299 RMK A01 T00600059  RH  099%=      5-min Rain = 0
KQU1 161045Z 04005KT 06/06 A299 RMK A01 T00600059  RH  099%=      5-min Rain = 0
KQU1 161046Z 04005KT 06/06 A299 RMK A01 T00590059  RH  099%=      5-min Rain = 0
KQU1 161047Z 03005KT 06/06 A299 RMK A01 T00590058  RH  099%=      5-min Rain = 0
KQU1 161048Z 03006KT 06/06 A299 RMK A01 T00590058  RH  099%=      5-min Rain = 0
KQU1 161049Z 05003KT 06/06 A299 RMK A01 T00590058  RH  099%=      5-min Rain = 0
KQU1 161050Z 04004KT 06/06 A299 RMK A01 T00590058  RH  099%=      5-min Rain = 0
KQU1 161051Z 02004KT 06/06 A299 RMK A01 T00590058  RH  099%=      5-min Rain = 0
KQU1 161052Z 03005KT 06/06 A299 RMK A01 T00590058  RH  099%=      5-min Rain = 0
KQU1 161053Z 04004KT 06/06 A299 RMK A01 T00590058  RH  099%=      5-min Rain = 0
KQU1 161054Z 03004KT 06/06 A299 RMK A01 T00590058  RH  099%=      5-min Rain = 0
KQU1 161055Z 04004KT 06/06 A299 RMK A01 T00580058  RH  099%=      5-min Rain = 0
KQU1 161056Z 03004KT 06/06 A299 RMK A01 T00580058  RH  099%=      5-min Rain = 0
KQU1 161057Z 03004KT 06/06 A299 RMK A01 T00590058  RH  099%=      5-min Rain = 0
KQU1 161058Z 04004KT 06/06 A299 RMK A01 T00580057  RH  099%=      5-min Rain = 0
KQU1 161059Z 05003KT 06/06 A299 RMK A01 T00580057  RH  099%=      5-min Rain = 0
KQU1 161100Z 05003KT 06/06 A299 RMK A01 T00580057  RH  099%=      5-min Rain = 0
KQU1 161101Z 04003KT 06/06 A299 RMK A01 T00580057  RH  099%=      5-min Rain = 0
KQU1 161102Z 03002KT 06/06 A299 RMK A01 T00580057  RH  099%=      5-min Rain = 0
KQU1 161103Z 04003KT 06/06 A299 RMK A01 T00580057  RH  099%=      5-min Rain = 0
KQU1 161104Z 03002KT 06/06 A299 RMK A01 T00580057  RH  099%=      5-min Rain = 0
KQU1 161105Z 06002KT 06/06 A299 RMK A01 T00580057  RH  099%=      5-min Rain = 0
KQU1 161106Z 05002KT 06/06 A299 RMK A01 T00580057  RH  099%=      5-min Rain = 0
KQU1 161107Z 06004KT 06/06 A299 RMK A01 T00580057  RH  099%=      5-min Rain = 0
KQU1 161108Z 03003KT 06/06 A299 RMK A01 T00570056  RH  099%=      5-min Rain = 0
KQU1 161109Z 05003KT 06/06 A299 RMK A01 T00570056  RH  099%=      5-min Rain = 0
KQU1 161110Z 05002KT 06/06 A299 RMK A01 T00570056  RH  099%=      5-min Rain = 0
KQU1 161111Z 05001KT 06/06 A299 RMK A01 T00570056  RH  099%=      5-min Rain = 0
KQU1 161112Z 05002KT 06/06 A299 RMK A01 T00570056  RH  099%=      5-min Rain = 0
KQU1 161113Z 06003KT 06/06 A299 RMK A01 T00570056  RH  099%=      5-min Rain = 0
KQU1 161114Z 05003KT 06/06 A299 RMK A01 T00570056  RH  099%=      5-min Rain = 0
KQU1 161115Z 06003KT 06/06 A299 RMK A01 T00570056  RH  099%=      5-min Rain = 0
KQU1 161116Z 05003KT 06/06 A299 RMK A01 T00570056  RH  099%=      5-min Rain = 0
KQU1 161117Z 05004KT 06/06 A2989 RMK A01 T00570056  RH  099%=      5-min Rain = 0
KQU1 161118Z 05003KT 06/06 A2989 RMK A01 T00570056  RH  099%=      5-min Rain = 0
KQU1 161119Z 03001KT 06/06 A2989 RMK A01 T00570056  RH  099%=      5-min Rain = 0
KQU1 161120Z 06003KT 06/06 A2989 RMK A01 T00570056  RH  099%=      5-min Rain = 0
KQU1 161121Z 06003KT 06/06 A2989 RMK A01 T00570056  RH  099%=      5-min Rain = 0
KQU1 161122Z 05003KT 06/06 A2989 RMK A01 T00570056  RH  099%=      5-min Rain = 0
KQU1 161123Z 06003KT 06/06 A2989 RMK A01 T00570056  RH  099%=      5-min Rain = 0
KQU1 161124Z 04001KT 06/06 A2989 RMK A01 T00570056  RH  099%=      5-min Rain = 0
KQU1 161125Z 07001KT 06/06 A2989 RMK A01 T00570056  RH  099%=      5-min Rain = 0
KQU1 161126Z 05001KT 06/06 A2989 RMK A01 T00570056  RH  099%=      5-min Rain = 0
KQU1 161127Z 05001KT 06/06 A2989 RMK A01 T00570056  RH  099%=      5-min Rain = 0
KQU1 161128Z 04001KT 06/06 A2989 RMK A01 T00570056  RH  099%=      5-min Rain = 0
KQU1 161129Z 04000KT 06/06 A2989 RMK A01 T00570056  RH  099%=      5-min Rain = 0
KQU1 161130Z 00000KT 06/06 A2989 RMK A01 T00560055  RH  099%=      5-min Rain = 0
KQU1 161131Z 09000KT 06/06 A2989 RMK A01 T00560055  RH  099%=      5-min Rain = 0
KQU1 161132Z 00000KT 06/06 A2989 RMK A01 T00560055  RH  099%=      5-min Rain = 0
KQU1 161133Z 00000KT 06/06 A2989 RMK A01 T00560055  RH  099%=      5-min Rain = 0
KQU1 161134Z 00000KT 06/06 A2989 RMK A01 T00560055  RH  099%=      5-min Rain = 0
KQU1 161135Z 00000KT 06/06 A2989 RMK A01 T00560055  RH  099%=      5-min Rain = 0
KQU1 161136Z 20001KT 06/06 A2989 RMK A01 T00560055  RH  099%=      5-min Rain = 0
KQU1 161137Z 15002KT 06/06 A2989 RMK A01 T00560055  RH  099%=      5-min Rain = 0
KQU1 161138Z 16002KT 06/06 A2989 RMK A01 T00560055  RH  099%=      5-min Rain = 0
KQU1 161139Z 18002KT 06/06 A2989 RMK A01 T00560055  RH  099%=      5-min Rain = 0
KQU1 161140Z 19003KT 06/06 A2989 RMK A01 T00560055  RH  099%=      5-min Rain = 0
KQU1 161141Z 17002KT 06/06 A2989 RMK A01 T00560055  RH  099%=      5-min Rain = 0
KQU1 161142Z 13001KT 06/05 A2989 RMK A01 T00550054  RH  099%=      5-min Rain = 0
KQU1 161143Z 15002KT 06/05 A2989 RMK A01 T00550054  RH  099%=      5-min Rain = 0
KQU1 161144Z 19002KT 06/05 A2989 RMK A01 T00550054  RH  099%=      5-min Rain = 0
KQU1 161145Z 19003KT 06/05 A2989 RMK A01 T00550054  RH  099%=      5-min Rain = 0
KQU1 161146Z 18003KT 06/05 A2989 RMK A01 T00550054  RH  099%=      5-min Rain = 0
KQU1 161147Z 18002KT 06/05 A2989 RMK A01 T00550054  RH  099%=      5-min Rain = 0
KQU1 161148Z 20002KT 06/05 A2989 RMK A01 T00550054  RH  099%=      5-min Rain = 0
KQU1 161149Z 19002KT 06/05 A2989 RMK A01 T00550054  RH  099%=      5-min Rain = 0
KQU1 161150Z 16002KT 06/05 A2989 RMK A01 T00550054  RH  099%=      5-min Rain = 0
KQU1 161151Z 13002KT 06/05 A2989 RMK A01 T00550054  RH  099%=      5-min Rain = 0
KQU1 161152Z 11002KT 06/05 A2989 RMK A01 T00550054  RH  099%=      5-min Rain = 0
KQU1 161153Z 09002KT 06/05 A2989 RMK A01 T00550054  RH  099%=      5-min Rain = 0
KQU1 161154Z 07002KT 05/05 A2989 RMK A01 T00540053  RH  099%=      5-min Rain = 0
KQU1 161155Z 07002KT 05/05 A2989 RMK A01 T00540053  RH  099%=      5-min Rain = 0
KQU1 161156Z 08002KT 05/05 A2989 RMK A01 T00540053  RH  099%=      5-min Rain = 0
KQU1 161157Z 07002KT 05/05 A2989 RMK A01 T00540053  RH  099%=      5-min Rain = 0
KQU1 161158Z 09002KT 05/05 A2989 RMK A01 T00540053  RH  099%=      5-min Rain = 0
KQU1 161159Z 09003KT 05/05 A2989 RMK A01 T00540053  RH  099%=      5-min Rain = 0
KQU1 161200Z 08002KT 05/05 A2989 RMK A01 T00540053  RH  099%=      5-min Rain = 0
KQU1 161201Z 09001KT 06/05 A2989 RMK A01 T00550054  RH  099%=      5-min Rain = 0
KQU1 161202Z 07003KT 06/05 A2989 RMK A01 T00550054  RH  099%=      5-min Rain = 0
KQU1 161203Z 06003KT 05/05 A2989 RMK A01 T00540053  RH  099%=      5-min Rain = 0
KQU1 161204Z 05002KT 05/05 A2989 RMK A01 T00540053  RH  099%=      5-min Rain = 0
KQU1 161205Z 04002KT 05/05 A2989 RMK A01 T00540053  RH  099%=      5-min Rain = 0
KQU1 161206Z 03002KT 05/05 A299 RMK A01 T00540053  RH  099%=      5-min Rain = 0
KQU1 161207Z 03003KT 05/05 A299 RMK A01 T00540053  RH  099%=      5-min Rain = 0
KQU1 161208Z 04003KT 05/05 A299 RMK A01 T00540053  RH  099%=      5-min Rain = 0
KQU1 161209Z 03002KT 06/05 A299 RMK A01 T00550054  RH  099%=      5-min Rain = 0
KQU1 161210Z 03004KT 06/05 A299 RMK A01 T00550054  RH  099%=      5-min Rain = 0
KQU1 161211Z 03003KT 06/05 A299 RMK A01 T00550054  RH  099%=      5-min Rain = 0
KQU1 161212Z 05002KT 06/05 A299 RMK A01 T00550054  RH  099%=      5-min Rain = 0
KQU1 161213Z 04002KT 06/05 A299 RMK A01 T00550054  RH  099%=      5-min Rain = 0
KQU1 161214Z 05002KT 06/05 A299 RMK A01 T00550054  RH  099%=      5-min Rain = 0
KQU1 161215Z 02003KT 06/05 A299 RMK A01 T00550054  RH  099%=      5-min Rain = 0
KQU1 161216Z 04003KT 06/05 A2991 RMK A01 T00550054  RH  099%=      5-min Rain = 0
KQU1 161217Z 03002KT 06/06 A2991 RMK A01 T00560055  RH  099%=      5-min Rain = 0
KQU1 161218Z 06003KT 06/06 A2991 RMK A01 T00560055  RH  099%=      5-min Rain = 0
KQU1 161219Z 05004KT 06/06 A2991 RMK A01 T00560055  RH  099%=      5-min Rain = 0
KQU1 161220Z 04004KT 06/06 A2991 RMK A01 T00560055  RH  099%=      5-min Rain = 0
KQU1 161221Z 03002KT 06/06 A2991 RMK A01 T00560055  RH  099%=      5-min Rain = 0
KQU1 161222Z 03004KT 06/06 A2991 RMK A01 T00560055  RH  099%=      5-min Rain = 0
KQU1 161223Z 02003KT 06/06 A299 RMK A01 T00560055  RH  099%=      5-min Rain = 0
KQU1 161224Z 03003KT 06/06 A299 RMK A01 T00560055  RH  099%=      5-min Rain = 0
KQU1 161225Z 03005KT 06/06 A299 RMK A01 T00560055  RH  099%=      5-min Rain = 0
KQU1 161226Z 03003KT 06/06 A2991 RMK A01 T00560055  RH  099%=      5-min Rain = 0
KQU1 161227Z 04003KT 06/06 A2991 RMK A01 T00560055  RH  099%=      5-min Rain = 0
KQU1 161228Z 03004KT 06/06 A2991 RMK A01 T00560055  RH  099%=      5-min Rain = 0
KQU1 161229Z 04002KT 06/06 A2991 RMK A01 T00560055  RH  099%=      5-min Rain = 0
KQU1 161230Z 06003KT 06/06 A299 RMK A01 T00560055  RH  099%=      5-min Rain = 0
KQU1 161231Z 05002KT 06/06 A299 RMK A01 T00560055  RH  099%=      5-min Rain = 0
KQU1 161232Z 03003KT 06/06 A2991 RMK A01 T00560055  RH  099%=      5-min Rain = 0
KQU1 161233Z 02004KT 06/06 A2991 RMK A01 T00560055  RH  099%=      5-min Rain = 0
KQU1 161234Z 02005KT 06/06 A2991 RMK A01 T00560055  RH  099%=      5-min Rain = 0
KQU1 161235Z 04003KT 06/05 A2991 RMK A01 T00550054  RH  099%=      5-min Rain = 0
KQU1 161236Z 05004KT 06/05 A2991 RMK A01 T00550054  RH  099%=      5-min Rain = 0
KQU1 161237Z 05004KT 06/05 A2991 RMK A01 T00550054  RH  099%=      5-min Rain = 0
KQU1 161238Z 04004KT 06/05 A2991 RMK A01 T00550054  RH  099%=      5-min Rain = 0
KQU1 161239Z 03005KT 06/05 A2991 RMK A01 T00550054  RH  099%=      5-min Rain = 0
KQU1 161240Z 03003KT 06/05 A2991 RMK A01 T00550054  RH  099%=      5-min Rain = 0
KQU1 161241Z 04004KT 06/05 A2991 RMK A01 T00550054  RH  099%=      5-min Rain = 0
KQU1 161242Z 02004KT 06/05 A2991 RMK A01 T00550054  RH  099%=      5-min Rain = 0
KQU1 161243Z 03007KT 06/05 A2991 RMK A01 T00550054  RH  099%=      5-min Rain = 0
KQU1 161244Z 03005KT 06/05 A2991 RMK A01 T00550054  RH  099%=      5-min Rain = 0
KQU1 161245Z 02004KT 06/05 A2991 RMK A01 T00550054  RH  099%=      5-min Rain = 0
KQU1 161246Z 03005KT 06/05 A2991 RMK A01 T00550054  RH  099%=      5-min Rain = 0
KQU1 161247Z 03005KT 06/05 A2992 RMK A01 T00550054  RH  099%=      5-min Rain = 0
KQU1 161248Z 03007KT 06/05 A2992 RMK A01 T00550054  RH  099%=      5-min Rain = 0
KQU1 161249Z 04006KT 06/05 A2992 RMK A01 T00550054  RH  099%=      5-min Rain = 0
KQU1 161250Z 03004KT 06/05 A2992 RMK A01 T00550054  RH  099%=      5-min Rain = 0
KQU1 161251Z 02005KT 06/06 A2992 RMK A01 T00560055  RH  099%=      5-min Rain = 0
KQU1 161252Z 04004KT 06/06 A2992 RMK A01 T00560055  RH  099%=      5-min Rain = 0
KQU1 161253Z 03005KT 06/06 A2992 RMK A01 T00560055  RH  099%=      5-min Rain = 0
KQU1 161254Z 03002KT 06/06 A2992 RMK A01 T00560055  RH  099%=      5-min Rain = 0
KQU1 161255Z 05003KT 06/06 A2992 RMK A01 T00560055  RH  099%=      5-min Rain = 0
KQU1 161256Z 03002KT 06/06 A2992 RMK A01 T00560055  RH  099%=      5-min Rain = 0
KQU1 161257Z 03003KT 06/06 A2992 RMK A01 T00560055  RH  099%=      5-min Rain = 0
KQU1 161258Z 03005KT 06/06 A2992 RMK A01 T00560055  RH  099%=      5-min Rain = 0
KQU1 161259Z 04005KT 06/06 A2992 RMK A01 T00560055  RH  099%=      5-min Rain = 0
KQU1 161300Z 03004KT 06/06 A2992 RMK A01 T00560055  RH  099%=      5-min Rain = 0
KQU1 161301Z 03003KT 06/06 A2992 RMK A01 T00560055  RH  099%=      5-min Rain = 0
KQU1 161302Z 04003KT 06/06 A2992 RMK A01 T00560055  RH  099%=      5-min Rain = 0
KQU1 161303Z 02003KT 06/06 A2992 RMK A01 T00570055  RH  099%=      5-min Rain = 0
KQU1 161304Z 03003KT 06/06 A2992 RMK A01 T00570056  RH  099%=      5-min Rain = 0
KQU1 161305Z 01003KT 06/06 A2992 RMK A01 T00570056  RH  099%=      5-min Rain = 0
KQU1 161306Z 02003KT 06/06 A2992 RMK A01 T00570056  RH  099%=      5-min Rain = 0
KQU1 161307Z 03004KT 06/06 A2992 RMK A01 T00570056  RH  099%=      5-min Rain = 0
KQU1 161308Z 02001KT 06/06 A2992 RMK A01 T00570056  RH  099%=      5-min Rain = 0
KQU1 161309Z 03004KT 06/06 A2992 RMK A01 T00570056  RH  099%=      5-min Rain = 0
KQU1 161310Z 03004KT 06/06 A2992 RMK A01 T00570055  RH  099%=      5-min Rain = 0
KQU1 161311Z 02005KT 06/06 A2993 RMK A01 T00560055  RH  099%=      5-min Rain = 0
KQU1 161312Z 03005KT 06/06 A2993 RMK A01 T00560055  RH  099%=      5-min Rain = 0
KQU1 161313Z 03006KT 06/06 A2993 RMK A01 T00560055  RH  099%=      5-min Rain = 0
KQU1 161314Z 04004KT 06/06 A2993 RMK A01 T00560055  RH  099%=      5-min Rain = 0
KQU1 161315Z 03005KT 06/06 A2993 RMK A01 T00560055  RH  099%=      5-min Rain = 0
KQU1 161316Z 03006KT 06/06 A2993 RMK A01 T00560055  RH  099%=      5-min Rain = 0
KQU1 161317Z 04003KT 06/06 A2993 RMK A01 T00560055  RH  099%=      5-min Rain = 0
KQU1 161318Z 03003KT 06/06 A2993 RMK A01 T00560055  RH  099%=      5-min Rain = 0
KQU1 161319Z 03003KT 06/06 A2993 RMK A01 T00560055  RH  099%=      5-min Rain = 0
KQU1 161320Z 03005KT 06/06 A2993 RMK A01 T00560055  RH  099%=      5-min Rain = 0
KQU1 161321Z 02004KT 06/06 A2993 RMK A01 T00560055  RH  099%=      5-min Rain = 0
KQU1 161322Z 01003KT 06/06 A2993 RMK A01 T00560055  RH  099%=      5-min Rain = 0
KQU1 161323Z 02003KT 06/06 A2993 RMK A01 T00560055  RH  099%=      5-min Rain = 0
KQU1 161324Z 02004KT 06/06 A2993 RMK A01 T00570055  RH  099%=      5-min Rain = 0
KQU1 161325Z 01004KT 06/06 A2993 RMK A01 T00570056  RH  099%=      5-min Rain = 0
KQU1 161326Z 02005KT 06/06 A2993 RMK A01 T00560055  RH  099%=      5-min Rain = 0
KQU1 161327Z 01004KT 06/06 A2993 RMK A01 T00560055  RH  099%=      5-min Rain = 0
KQU1 161328Z 02005KT 06/05 A2993 RMK A01 T00550054  RH  099%=      5-min Rain = 0
KQU1 161329Z 03005KT 06/05 A2993 RMK A01 T00560054  RH  099%=      5-min Rain = 0
KQU1 161330Z 04004KT 06/06 A2993 RMK A01 T00560055  RH  099%=      5-min Rain = 0
KQU1 161331Z 04005KT 06/06 A2993 RMK A01 T00560055  RH  099%=      5-min Rain = 0
KQU1 161332Z 03004KT 06/06 A2993 RMK A01 T00560055  RH  099%=      5-min Rain = 0
KQU1 161333Z 04002KT 06/06 A2993 RMK A01 T00560055  RH  099%=      5-min Rain = 0
KQU1 161334Z 04004KT 06/06 A2993 RMK A01 T00560055  RH  099%=      5-min Rain = 0
KQU1 161335Z 03005KT 06/06 A2993 RMK A01 T00570056  RH  099%=      5-min Rain = 0
KQU1 161336Z 02005KT 06/06 A2993 RMK A01 T00570055  RH  099%=      5-min Rain = 0
KQU1 161337Z 02007KT 06/06 A2993 RMK A01 T00560055  RH  099%=      5-min Rain = 0
KQU1 161338Z 03004KT 06/06 A2993 RMK A01 T00560055  RH  099%=      5-min Rain = 0
KQU1 161339Z 02004KT 06/06 A2993 RMK A01 T00570055  RH  099%=      5-min Rain = 0
KQU1 161340Z 02007KT 06/06 A2993 RMK A01 T00560055  RH  099%=      5-min Rain = 0
KQU1 161341Z 03005KT 06/06 A2993 RMK A01 T00560055  RH  099%=      5-min Rain = 0
KQU1 161342Z 02005KT 06/06 A2993 RMK A01 T00560055  RH  099%=      5-min Rain = 0
KQU1 161343Z 03007KT 06/06 A2994 RMK A01 T00560055  RH  099%=      5-min Rain = 0
KQU1 161344Z 01005KT 06/06 A2994 RMK A01 T00560055  RH  099%=      5-min Rain = 0
KQU1 161345Z 03004KT 06/06 A2994 RMK A01 T00560055  RH  099%=      5-min Rain = 0
KQU1 161346Z 02004KT 06/06 A2994 RMK A01 T00570055  RH  099%=      5-min Rain = 0
KQU1 161347Z 03005KT 06/06 A2994 RMK A01 T00570056  RH  099%=      5-min Rain = 0
KQU1 161348Z 03003KT 06/06 A2994 RMK A01 T00570056  RH  099%=      5-min Rain = 0
KQU1 161349Z 02006KT 06/06 A2994 RMK A01 T00570056  RH  099%=      5-min Rain = 0
KQU1 161350Z 03005KT 06/06 A2994 RMK A01 T00570056  RH  099%=      5-min Rain = 0
KQU1 161351Z 03007KT 06/06 A2994 RMK A01 T00570056  RH  099%=      5-min Rain = 0
KQU1 161352Z 03008KT 06/06 A2994 RMK A01 T00570056  RH  099%=      5-min Rain = 0
KQU1 161353Z 03007KT 06/06 A2994 RMK A01 T00570056  RH  099%=      5-min Rain = 0
KQU1 161354Z 02008KT 06/06 A2994 RMK A01 T00570055  RH  099%=      5-min Rain = 0
KQU1 161355Z 03005KT 06/06 A2994 RMK A01 T00570055  RH  099%=      5-min Rain = 0
KQU1 161356Z 02005KT 06/06 A2994 RMK A01 T00570056  RH  099%=      5-min Rain = 0
KQU1 161357Z 02005KT 06/06 A2994 RMK A01 T00570056  RH  099%=      5-min Rain = 0
KQU1 161358Z 03004KT 06/06 A2994 RMK A01 T00570056  RH  099%=      5-min Rain = 0
KQU1 161359Z 03008KT 06/06 A2994 RMK A01 T00570056  RH  099%=      5-min Rain = 0
KQU1 161400Z 03007KT 06/06 A2994 RMK A01 T00570055  RH  099%=      5-min Rain = 0
KQU1 161401Z 02006KT 06/06 A2994 RMK A01 T00560055  RH  099%=      5-min Rain = 0
KQU1 161402Z 03006KT 06/06 A2994 RMK A01 T00560055  RH  099%=      5-min Rain = 0
KQU1 161403Z 03005KT 06/06 A2994 RMK A01 T00560055  RH  099%=      5-min Rain = 0
KQU1 161404Z 03005KT 06/06 A2994 RMK A01 T00560055  RH  099%=      5-min Rain = 0
KQU1 161405Z 03002KT 06/06 A2994 RMK A01 T00570055  RH  099%=      5-min Rain = 0
KQU1 161406Z 03003KT 06/06 A2994 RMK A01 T00570055  RH  099%=      5-min Rain = 0
KQU1 161407Z 03004KT 06/06 A2994 RMK A01 T00570056  RH  099%=      5-min Rain = 0
KQU1 161408Z 02005KT 06/06 A2994 RMK A01 T00570056  RH  099%=      5-min Rain = 0
KQU1 161409Z 03003KT 06/06 A2994 RMK A01 T00570056  RH  099%=      5-min Rain = 0
KQU1 161410Z 03003KT 06/06 A2994 RMK A01 T00580056  RH  099%=      5-min Rain = 0
KQU1 161411Z 02004KT 06/06 A2994 RMK A01 T00580056  RH  099%=      5-min Rain = 0
KQU1 161412Z 01005KT 06/06 A2994 RMK A01 T00570056  RH  099%=      5-min Rain = 0
KQU1 161413Z 01006KT 06/06 A2994 RMK A01 T00560055  RH  099%=      5-min Rain = 0
KQU1 161414Z 04003KT 06/06 A2994 RMK A01 T00560055  RH  099%=      5-min Rain = 0
KQU1 161415Z 04003KT 06/06 A2994 RMK A01 T00570055  RH  099%=      5-min Rain = 0
KQU1 161416Z 04001KT 06/06 A2994 RMK A01 T00570056  RH  099%=      5-min Rain = 0
KQU1 161417Z 02004KT 06/06 A2994 RMK A01 T00580057  RH  099%=      5-min Rain = 0
KQU1 161418Z 01005KT 06/06 A2994 RMK A01 T00580057  RH  099%=      5-min Rain = 0
KQU1 161419Z 00006KT 06/06 A2994 RMK A01 T00580057  RH  099%=      5-min Rain = 0
KQU1 161420Z 01005KT 06/06 A2994 RMK A01 T00570056  RH  099%=      5-min Rain = 0
KQU1 161421Z 02004KT 06/06 A2994 RMK A01 T00570056  RH  099%=      5-min Rain = 0
KQU1 161422Z 03002KT 06/06 A2994 RMK A01 T00570056  RH  099%=      5-min Rain = 0
KQU1 161423Z 03004KT 06/06 A2994 RMK A01 T00580056  RH  099%=      5-min Rain = 0
KQU1 161424Z 02004KT 06/06 A2994 RMK A01 T00580056  RH  099%=      5-min Rain = 0
KQU1 161425Z 03004KT 06/06 A2994 RMK A01 T00580057  RH  099%=      5-min Rain = 0
KQU1 161426Z 02004KT 06/06 A2994 RMK A01 T00580057  RH  099%=      5-min Rain = 0
KQU1 161427Z 03004KT 06/06 A2994 RMK A01 T00580057  RH  099%=      5-min Rain = 0
KQU1 161428Z 02004KT 06/06 A2994 RMK A01 T00590057  RH  099%=      5-min Rain = 0
KQU1 161429Z 02005KT 06/06 A2994 RMK A01 T00580057  RH  099%=      5-min Rain = 0
KQU1 161430Z 02004KT 06/06 A2994 RMK A01 T00580057  RH  099%=      5-min Rain = 0
KQU1 161431Z 03003KT 06/06 A2994 RMK A01 T00590057  RH  099%=      5-min Rain = 0
KQU1 161432Z 03004KT 06/06 A2994 RMK A01 T00590058  RH  099%=      5-min Rain = 0
KQU1 161433Z 03003KT 06/06 A2994 RMK A01 T00590058  RH  099%=      5-min Rain = 0
KQU1 161434Z 03004KT 06/06 A2994 RMK A01 T00590058  RH  099%=      5-min Rain = 0
KQU1 161435Z 02004KT 06/06 A2994 RMK A01 T00590058  RH  099%=      5-min Rain = 0
KQU1 161436Z 02004KT 06/06 A2994 RMK A01 T00590058  RH  099%=      5-min Rain = 0
KQU1 161437Z 01007KT 06/06 A2994 RMK A01 T00590058  RH  099%=      5-min Rain = 0
KQU1 161438Z 01005KT 06/06 A2995 RMK A01 T00590058  RH  099%=      5-min Rain = 0
KQU1 161439Z 02005KT 06/06 A2995 RMK A01 T00590058  RH  099%=      5-min Rain = 0
KQU1 161440Z 02005KT 06/06 A2995 RMK A01 T00600058  RH  099%=      5-min Rain = 0
KQU1 161441Z 01006KT 06/06 A2995 RMK A01 T00600058  RH  099%=      5-min Rain = 0
KQU1 161442Z 02006KT 06/06 A2995 RMK A01 T00590058  RH  099%=      5-min Rain = 0
KQU1 161443Z 02004KT 06/06 A2995 RMK A01 T00590058  RH  099%=      5-min Rain = 0
KQU1 161444Z 03003KT 06/06 A2995 RMK A01 T00600058  RH  099%=      5-min Rain = 0
KQU1 161445Z 02004KT 06/06 A2995 RMK A01 T00600059  RH  099%=      5-min Rain = 0
KQU1 161446Z 02003KT 06/06 A2995 RMK A01 T00600059  RH  099%=      5-min Rain = 0
KQU1 161447Z 03002KT 06/06 A2995 RMK A01 T00610059  RH  099%=      5-min Rain = 0
KQU1 161448Z 02002KT 06/06 A2995 RMK A01 T00610060  RH  099%=      5-min Rain = 0
KQU1 161449Z 03003KT 06/06 A2995 RMK A01 T00620061  RH  099%=      5-min Rain = 0
KQU1 161450Z 03004KT 06/06 A2995 RMK A01 T00620061  RH  099%=      5-min Rain = 0
KQU1 161451Z 00003KT 06/06 A2995 RMK A01 T00620061  RH  099%=      5-min Rain = 0
KQU1 161452Z 00003KT 06/06 A2995 RMK A01 T00630061  RH  099%=      5-min Rain = 0
KQU1 161453Z 36003KT 06/06 A2995 RMK A01 T00630062  RH  099%=      5-min Rain = 0
KQU1 161454Z 35004KT 06/06 A2995 RMK A01 T00630062  RH  099%=      5-min Rain = 0
KQU1 161455Z 34003KT 06/06 A2995 RMK A01 T00630061  RH  099%=      5-min Rain = 0
KQU1 161456Z 35004KT 06/06 A2995 RMK A01 T00640063  RH  099%=      5-min Rain = 0
KQU1 161457Z 36004KT 06/06 A2995 RMK A01 T00640063  RH  099%=      5-min Rain = 0
KQU1 161458Z 01003KT 07/06 A2995 RMK A01 T00650064  RH  099%=      5-min Rain = 0
KQU1 161459Z 02003KT 07/06 A2995 RMK A01 T00650064  RH  099%=      5-min Rain = 0
KQU1 161500Z 02003KT 07/06 A2995 RMK A01 T00660064  RH  099%=      5-min Rain = 0
KQU1 161501Z 02003KT 07/06 A2995 RMK A01 T00660064  RH  099%=      5-min Rain = 0
KQU1 161502Z 05003KT 07/06 A2995 RMK A01 T00660064  RH  099%=      5-min Rain = 0
KQU1 161503Z 04006KT 07/06 A2996 RMK A01 T00660064  RH  099%=      5-min Rain = 0
KQU1 161504Z 03005KT 07/06 A2996 RMK A01 T00650064  RH  099%=      5-min Rain = 0
KQU1 161505Z 02006KT 07/06 A2996 RMK A01 T00660064  RH  099%=      5-min Rain = 0
KQU1 161506Z 03006KT 07/06 A2997 RMK A01 T00660064  RH  099%=      5-min Rain = 0
KQU1 161507Z 02007KT 07/06 A2997 RMK A01 T00660064  RH  099%=      5-min Rain = 0
KQU1 161508Z 03007KT 07/07 A2996 RMK A01 T00670065  RH  099%=      5-min Rain = 0
KQU1 161509Z 04004KT 07/07 A2996 RMK A01 T00670065  RH  099%=      5-min Rain = 0
KQU1 161510Z 02005KT 07/07 A2996 RMK A01 T00670065  RH  099%=      5-min Rain = 0
KQU1 161511Z 01006KT 07/07 A2996 RMK A01 T00670065  RH  099%=      5-min Rain = 0
KQU1 161512Z 01005KT 07/07 A2996 RMK A01 T00670065  RH  099%=      5-min Rain = 0
KQU1 161513Z 01004KT 07/06 A2996 RMK A01 T00670064  RH  098%=      5-min Rain = 0
KQU1 161514Z 02008KT 07/07 A2996 RMK A01 T00670065  RH  098%=      5-min Rain = 0
KQU1 161515Z 02007KT 07/07 A2996 RMK A01 T00680065  RH  098%=      5-min Rain = 0
KQU1 161516Z 05004KT 07/07 A2996 RMK A01 T00680066  RH  098%=      5-min Rain = 0
KQU1 161517Z 03005KT 07/07 A2996 RMK A01 T00690066  RH  098%=      5-min Rain = 0
KQU1 161518Z 03008KT 07/07 A2996 RMK A01 T00690067  RH  098%=      5-min Rain = 0
KQU1 161519Z 02006KT 07/07 A2996 RMK A01 T00700067  RH  098%=      5-min Rain = 0
KQU1 161520Z 02008KT 07/07 A2996 RMK A01 T00700067  RH  098%=      5-min Rain = 0
KQU1 161521Z 02008KT 07/07 A2996 RMK A01 T00700067  RH  098%=      5-min Rain = 0
KQU1 161522Z 02007KT 07/07 A2996 RMK A01 T00690066  RH  098%=      5-min Rain = 0
KQU1 161523Z 03008KT 07/07 A2996 RMK A01 T00700066  RH  098%=      5-min Rain = 0
KQU1 161524Z 02008G13KT 07/07 A2996 RMK A01 T00700066  RH  098%=      5-min Rain = 0
KQU1 161525Z 02010KT 07/07 A2996 RMK A01 T00700066  RH  097%=      5-min Rain = 0
KQU1 161526Z 02009KT 07/07 A2996 RMK A01 T00690065  RH  097%=      5-min Rain = 0
KQU1 161527Z 02008KT 07/07 A2996 RMK A01 T00690065  RH  097%=      5-min Rain = 0
KQU1 161528Z 02009G14KT 07/06 A2996 RMK A01 T00690064  RH  097%=      5-min Rain = 0
KQU1 161529Z 02008KT 07/06 A2996 RMK A01 T00690064  RH  097%=      5-min Rain = 0
KQU1 161530Z 03008KT 07/06 A2996 RMK A01 T00690064  RH  097%=      5-min Rain = 0
KQU1 161531Z 02009KT 07/06 A2996 RMK A01 T00680064  RH  097%=      5-min Rain = 0
KQU1 161532Z 02006KT 07/06 A2996 RMK A01 T00680064  RH  097%=      5-min Rain = 0
KQU1 161533Z 03007KT 07/06 A2996 RMK A01 T00690064  RH  097%=      5-min Rain = 0
KQU1 161534Z 02010KT 07/06 A2996 RMK A01 T00690064  RH  097%=      5-min Rain = 0
KQU1 161535Z 03005KT 07/06 A2996 RMK A01 T00680064  RH  097%=      5-min Rain = 0
KQU1 161536Z 02006KT 07/06 A2996 RMK A01 T00690064  RH  097%=      5-min Rain = 0
KQU1 161537Z 04005KT 07/07 A2996 RMK A01 T00690065  RH  097%=      5-min Rain = 0
KQU1 161538Z 05004KT 07/07 A2996 RMK A01 T00690065  RH  097%=      5-min Rain = 0
KQU1 161539Z 04005KT 07/07 A2996 RMK A01 T00690065  RH  097%=      5-min Rain = 0
KQU1 161540Z 04008G13KT 07/07 A2996 RMK A01 T00690065  RH  097%=      5-min Rain = 0
KQU1 161541Z 02007KT 07/07 A2997 RMK A01 T00690065  RH  097%=      5-min Rain = 0
KQU1 161542Z 02009KT 07/07 A2997 RMK A01 T00690065  RH  097%=      5-min Rain = 0
KQU1 161543Z 03007KT 07/07 A2996 RMK A01 T00690065  RH  097%=      5-min Rain = 0
KQU1 161544Z 03007KT 07/07 A2996 RMK A01 T00690065  RH  097%=      5-min Rain = 0
KQU1 161545Z 03009KT 07/07 A2996 RMK A01 T00690065  RH  097%=      5-min Rain = 0
KQU1 161546Z 02007KT 07/07 A2997 RMK A01 T00700065  RH  097%=      5-min Rain = 0
KQU1 161547Z 03007KT 07/07 A2997 RMK A01 T00710066  RH  097%=      5-min Rain = 0
KQU1 161548Z 02007KT 07/07 A2997 RMK A01 T00710067  RH  097%=      5-min Rain = 0
KQU1 161549Z 02009KT 07/07 A2997 RMK A01 T00710066  RH  097%=      5-min Rain = 0
KQU1 161550Z 02007KT 07/07 A2997 RMK A01 T00710066  RH  097%=      5-min Rain = 0
KQU1 161551Z 02010KT 07/07 A2997 RMK A01 T00710066  RH  096%=      5-min Rain = 0
KQU1 161552Z 03009KT 07/07 A2997 RMK A01 T00710065  RH  096%=      5-min Rain = 0
KQU1 161553Z 02009G14KT 07/07 A2997 RMK A01 T00710065  RH  096%=      5-min Rain = 0
KQU1 161554Z 02009KT 07/06 A2997 RMK A01 T00700064  RH  096%=      5-min Rain = 0
KQU1 161555Z 02004KT 07/07 A2997 RMK A01 T00710065  RH  096%=      5-min Rain = 0
KQU1 161556Z 05005KT 07/07 A2997 RMK A01 T00720066  RH  096%=      5-min Rain = 0
KQU1 161557Z 03004KT 07/07 A2997 RMK A01 T00720066  RH  096%=      5-min Rain = 0
KQU1 161558Z 04007KT 07/07 A2997 RMK A01 T00720066  RH  096%=      5-min Rain = 0
KQU1 161559Z 04005G10KT 07/07 A2997 RMK A01 T00710065  RH  096%=      5-min Rain = 0
KQU1 161600Z 04007G12KT 07/06 A2997 RMK A01 T00700064  RH  096%=      5-min Rain = 0
KQU1 161601Z 04006KT 07/06 A2997 RMK A01 T00700064  RH  096%=      5-min Rain = 0
KQU1 161602Z 04008G14KT 07/06 A2997 RMK A01 T00690063  RH  096%=      5-min Rain = 0
KQU1 161603Z 04005KT 07/06 A2997 RMK A01 T00690063  RH  096%=      5-min Rain = 0
KQU1 161604Z 04005G10KT 07/06 A2997 RMK A01 T00690064  RH  096%=      5-min Rain = 0
KQU1 161605Z 03008KT 07/06 A2997 RMK A01 T00690063  RH  096%=      5-min Rain = 0
KQU1 161606Z 03005G11KT 07/06 A2997 RMK A01 T00690063  RH  096%=      5-min Rain = 0
KQU1 161607Z 03010KT 07/06 A2997 RMK A01 T00690063  RH  096%=      5-min Rain = 0
KQU1 161608Z 03007G12KT 07/06 A2997 RMK A01 T00690063  RH  096%=      5-min Rain = 0
KQU1 161609Z 03010KT 07/06 A2997 RMK A01 T00690062  RH  096%=      5-min Rain = 0
KQU1 161610Z 03009G15KT 07/06 A2997 RMK A01 T00690062  RH  096%=      5-min Rain = 0
KQU1 161611Z 03009G14KT 07/06 A2997 RMK A01 T00690062  RH  096%=      5-min Rain = 0
KQU1 161612Z 03007KT 07/06 A2997 RMK A01 T00690062  RH  096%=      5-min Rain = 0
KQU1 161613Z 03005KT 07/06 A2997 RMK A01 T00690063  RH  096%=      5-min Rain = 0
KQU1 161614Z 04006G11KT 07/06 A2997 RMK A01 T00690063  RH  096%=      5-min Rain = 0
KQU1 161615Z 03007G13KT 07/06 A2997 RMK A01 T00700063  RH  096%=      5-min Rain = 0
KQU1 161616Z 03008KT 07/06 A2997 RMK A01 T00690062  RH  095%=      5-min Rain = 0
KQU1 161617Z 03007KT 07/06 A2997 RMK A01 T00690063  RH  096%=      5-min Rain = 0
KQU1 161618Z 03005KT 07/06 A2997 RMK A01 T00690063  RH  096%=      5-min Rain = 0
KQU1 161619Z 03005KT 07/06 A2997 RMK A01 T00700063  RH  096%=      5-min Rain = 0
KQU1 161620Z 03010KT 07/06 A2997 RMK A01 T00690063  RH  095%=      5-min Rain = 0
KQU1 161621Z 03008G13KT 07/06 A2997 RMK A01 T00690061  RH  095%=      5-min Rain = 0
KQU1 161622Z 03008KT 07/06 A2997 RMK A01 T00680061  RH  095%=      5-min Rain = 0
KQU1 161623Z 04007G12KT 07/06 A2997 RMK A01 T00690062  RH  095%=      5-min Rain = 0
KQU1 161624Z 03007KT 07/06 A2997 RMK A01 T00690062  RH  095%=      5-min Rain = 0
KQU1 161625Z 04009KT 07/06 A2997 RMK A01 T00690062  RH  095%=      5-min Rain = 0
KQU1 161626Z 03006KT 07/06 A2997 RMK A01 T00680061  RH  095%=      5-min Rain = 0
KQU1 161627Z 03011KT 07/06 A2997 RMK A01 T00680061  RH  095%=      5-min Rain = 0
KQU1 161628Z 03007KT 07/06 A2997 RMK A01 T00690062  RH  095%=      5-min Rain = 0
KQU1 161629Z 02009G14KT 07/06 A2997 RMK A01 T00690062  RH  095%=      5-min Rain = 0
KQU1 161630Z 03008KT 07/06 A2997 RMK A01 T00690062  RH  095%=      5-min Rain = 0
KQU1 161631Z 03009KT 07/06 A2997 RMK A01 T00690062  RH  095%=      5-min Rain = 0
KQU1 161632Z 03008KT 07/06 A2997 RMK A01 T00700062  RH  095%=      5-min Rain = 0
KQU1 161633Z 03007G13KT 07/06 A2997 RMK A01 T00700063  RH  095%=      5-min Rain = 0
KQU1 161634Z 02007KT 07/06 A2997 RMK A01 T00710063  RH  095%=      5-min Rain = 0
KQU1 161635Z 03007KT 07/06 A2997 RMK A01 T00720064  RH  095%=      5-min Rain = 0
KQU1 161636Z 01008KT 07/06 A2997 RMK A01 T00720064  RH  095%=      5-min Rain = 0
KQU1 161637Z 02006KT 07/06 A2997 RMK A01 T00720064  RH  095%=      5-min Rain = 0
KQU1 161638Z 02006KT 07/07 A2997 RMK A01 T00730065  RH  095%=      5-min Rain = 0
KQU1 161639Z 02008KT 07/06 A2997 RMK A01 T00720064  RH  094%=      5-min Rain = 0
KQU1 161640Z 03005KT 07/07 A2997 RMK A01 T00730065  RH  095%=      5-min Rain = 0
KQU1 161641Z 03008KT 07/07 A2997 RMK A01 T00740065  RH  095%=      5-min Rain = 0
KQU1 161642Z 03007KT 07/07 A2997 RMK A01 T00740065  RH  094%=      5-min Rain = 0
KQU1 161643Z 04007KT 07/07 A2997 RMK A01 T00740065  RH  094%=      5-min Rain = 0
KQU1 161644Z 03006G11KT 07/07 A2997 RMK A01 T00740065  RH  094%=      5-min Rain = 0
KQU1 161645Z 02008KT 07/07 A2997 RMK A01 T00740065  RH  094%=      5-min Rain = 0
KQU1 161646Z 01008KT 07/07 A2997 RMK A01 T00740065  RH  094%=      5-min Rain = 0
KQU1 161647Z 03009G15KT 07/06 A2997 RMK A01 T00740064  RH  094%=      5-min Rain = 0
KQU1 161648Z 03007G12KT 07/06 A2997 RMK A01 T00740064  RH  093%=      5-min Rain = 0
KQU1 161649Z 02008G13KT 07/06 A2997 RMK A01 T00740064  RH  094%=      5-min Rain = 0
KQU1 161650Z 03013KT 07/06 A2997 RMK A01 T00730063  RH  093%=      5-min Rain = 0
KQU1 161651Z 03012KT 07/06 A2997 RMK A01 T00730061  RH  092%=      5-min Rain = 0
KQU1 161652Z 02010G16KT 07/06 A2997 RMK A01 T00730062  RH  093%=      5-min Rain = 0
KQU1 161653Z 03006KT 07/06 A2997 RMK A01 T00730063  RH  093%=      5-min Rain = 0
KQU1 161654Z 03008KT 07/06 A2997 RMK A01 T00740063  RH  093%=      5-min Rain = 0
KQU1 161655Z 03010KT 07/06 A2997 RMK A01 T00740063  RH  093%=      5-min Rain = 0
KQU1 161656Z 02008KT 07/06 A2997 RMK A01 T00740063  RH  093%=      5-min Rain = 0
KQU1 161657Z 02008G13KT 07/06 A2997 RMK A01 T00740063  RH  093%=      5-min Rain = 0
KQU1 161658Z 03007KT 07/06 A2997 RMK A01 T00740063  RH  092%=      5-min Rain = 0
KQU1 161659Z 02006G11KT 08/06 A2997 RMK A01 T00750063  RH  092%=      5-min Rain = 0
KQU1 161700Z 02007KT 08/06 A2997 RMK A01 T00750063  RH  092%=      5-min Rain = 0
KQU1 161701Z 03008KT 08/06 A2997 RMK A01 T00750064  RH  092%=      5-min Rain = 0
KQU1 161702Z 04008G13KT 08/06 A2997 RMK A01 T00760064  RH  092%=      5-min Rain = 0
KQU1 161703Z 02007KT 08/06 A2998 RMK A01 T00760064  RH  092%=      5-min Rain = 0
KQU1 161704Z 02007KT 08/06 A2998 RMK A01 T00760064  RH  092%=      5-min Rain = 0
KQU1 161705Z 02009KT 08/06 A2998 RMK A01 T00760064  RH  092%=      5-min Rain = 0
KQU1 161706Z 02009KT 08/06 A2998 RMK A01 T00760063  RH  092%=      5-min Rain = 0
KQU1 161707Z 02007KT 08/06 A2998 RMK A01 T00760063  RH  092%=      5-min Rain = 0
KQU1 161708Z 02008KT 08/06 A2998 RMK A01 T00760064  RH  092%=      5-min Rain = 0
KQU1 161709Z 02012KT 08/06 A2998 RMK A01 T00760064  RH  092%=      5-min Rain = 0
KQU1 161710Z 02010KT 08/06 A2998 RMK A01 T00760063  RH  091%=      5-min Rain = 0
KQU1 161711Z 01011KT 08/06 A2998 RMK A01 T00760062  RH  091%=      5-min Rain = 0
KQU1 161712Z 01009KT 08/06 A2998 RMK A01 T00760062  RH  091%=      5-min Rain = 0
KQU1 161713Z 02008KT 08/06 A2998 RMK A01 T00760063  RH  092%=      5-min Rain = 0
KQU1 161714Z 02009KT 08/06 A2998 RMK A01 T00770064  RH  092%=      5-min Rain = 0
KQU1 161715Z 02009KT 08/06 A2998 RMK A01 T00770063  RH  091%=      5-min Rain = 0
KQU1 161716Z 02011KT 08/06 A2998 RMK A01 T00770063  RH  091%=      5-min Rain = 0
KQU1 161717Z 01011KT 08/06 A2998 RMK A01 T00780064  RH  091%=      5-min Rain = 0
KQU1 161718Z 02011KT 08/06 A2998 RMK A01 T00780063  RH  091%=      5-min Rain = 0
KQU1 161719Z 02009KT 08/06 A2998 RMK A01 T00780064  RH  091%=      5-min Rain = 0
KQU1 161720Z 02009KT 08/06 A2998 RMK A01 T00780064  RH  091%=      5-min Rain = 0
KQU1 161721Z 01009KT 08/06 A2998 RMK A01 T00790064  RH  091%=      5-min Rain = 0
KQU1 161722Z 02009KT 08/07 A2998 RMK A01 T00790065  RH  091%=      5-min Rain = 0
KQU1 161723Z 02009KT 08/07 A2998 RMK A01 T00790066  RH  091%=      5-min Rain = 0
KQU1 161724Z 01009KT 08/06 A2998 RMK A01 T00790064  RH  090%=      5-min Rain = 0
KQU1 161725Z 02008KT 08/07 A2998 RMK A01 T00790065  RH  090%=      5-min Rain = 0
KQU1 161726Z 02008G13KT 08/07 A2998 RMK A01 T00800065  RH  091%=      5-min Rain = 0
KQU1 161727Z 02009KT 08/07 A2998 RMK A01 T00800065  RH  090%=      5-min Rain = 0
KQU1 161728Z 02009KT 08/07 A2998 RMK A01 T00800066  RH  091%=      5-min Rain = 0
KQU1 161729Z 02010KT 08/07 A2998 RMK A01 T00800066  RH  090%=      5-min Rain = 0
KQU1 161730Z 03007KT 08/07 A2998 RMK A01 T00800065  RH  090%=      5-min Rain = 0
KQU1 161731Z 04007G12KT 08/07 A2998 RMK A01 T00810066  RH  091%=      5-min Rain = 0
KQU1 161732Z 03004KT 08/07 A2998 RMK A01 T00820068  RH  091%=      5-min Rain = 0
KQU1 161733Z 03007KT 08/07 A2998 RMK A01 T00820068  RH  091%=      5-min Rain = 0
KQU1 161734Z 03007G14KT 08/07 A2998 RMK A01 T00830067  RH  090%=      5-min Rain = 0
KQU1 161735Z 02009G14KT 08/07 A2998 RMK A01 T00830066  RH  089%=      5-min Rain = 0
KQU1 161736Z 02011KT 08/07 A2998 RMK A01 T00830066  RH  089%=      5-min Rain = 0
KQU1 161737Z 02011G16KT 08/07 A2998 RMK A01 T00830065  RH  088%=      5-min Rain = 0
KQU1 161738Z 02008KT 08/06 A2998 RMK A01 T00830064  RH  088%=      5-min Rain = 0
KQU1 161739Z 02009KT 08/06 A2998 RMK A01 T00830064  RH  088%=      5-min Rain = 0
KQU1 161740Z 02009G14KT 08/07 A2998 RMK A01 T00830065  RH  088%=      5-min Rain = 0
KQU1 161741Z 02007G12KT 08/07 A2998 RMK A01 T00830065  RH  088%=      5-min Rain = 0
KQU1 161742Z 02013KT 08/06 A2998 RMK A01 T00830063  RH  087%=      5-min Rain = 0
KQU1 161743Z 03010G15KT 08/06 A2998 RMK A01 T00830063  RH  087%=      5-min Rain = 0
KQU1 161744Z 03011G16KT 08/06 A2998 RMK A01 T00840063  RH  087%=      5-min Rain = 0
KQU1 161745Z 03008KT 08/06 A2998 RMK A01 T00840064  RH  087%=      5-min Rain = 0
KQU1 161746Z 03007KT 08/07 A2998 RMK A01 T00840065  RH  087%=      5-min Rain = 0
KQU1 161747Z 02011KT 09/07 A2998 RMK A01 T00850065  RH  087%=      5-min Rain = 0
KQU1 161748Z 02011KT 09/06 A2998 RMK A01 T00850063  RH  086%=      5-min Rain = 0
KQU1 161749Z 02006KT 09/06 A2998 RMK A01 T00850064  RH  087%=      5-min Rain = 0
KQU1 161750Z 02010KT 09/07 A2998 RMK A01 T00860065  RH  086%=      5-min Rain = 0
KQU1 161751Z 02009G14KT 09/06 A2998 RMK A01 T00870064  RH  086%=      5-min Rain = 0
KQU1 161752Z 02009G14KT 09/07 A2998 RMK A01 T00870065  RH  086%=      5-min Rain = 0
KQU1 161753Z 03009KT 09/06 A2998 RMK A01 T00870063  RH  085%=      5-min Rain = 0
KQU1 161754Z 02008KT 09/07 A2998 RMK A01 T00880065  RH  086%=      5-min Rain = 0
KQU1 161755Z 02008KT 09/07 A2998 RMK A01 T00890066  RH  086%=      5-min Rain = 0
KQU1 161756Z 02011G16KT 09/06 A2998 RMK A01 T00890064  RH  084%=      5-min Rain = 0
KQU1 161757Z 03010G16KT 09/06 A2998 RMK A01 T00890064  RH  084%=      5-min Rain = 0
KQU1 161758Z 03009G14KT 09/06 A2998 RMK A01 T00900063  RH  083%=      5-min Rain = 0
KQU1 161759Z 03009G14KT 09/06 A2998 RMK A01 T00900063  RH  083%=      5-min Rain = 0
KQU1 161800Z 02011G16KT 09/06 A2998 RMK A01 T00900062  RH  082%=      5-min Rain = 0
KQU1 161801Z 01010KT 09/06 A2998 RMK A01 T00900063  RH  083%=      5-min Rain = 0
KQU1 161802Z 02010KT 09/06 A2998 RMK A01 T00910064  RH  083%=      5-min Rain = 0
KQU1 161803Z 02011G18KT 09/06 A2998 RMK A01 T00910062  RH  082%=      5-min Rain = 0
KQU1 161804Z 02013G18KT 09/06 A2998 RMK A01 T00900060  RH  082%=      5-min Rain = 0
KQU1 161805Z 03008G13KT 09/06 A2998 RMK A01 T00900061  RH  082%=      5-min Rain = 0
KQU1 161806Z 03013G19KT 09/06 A2998 RMK A01 T00900060  RH  082%=      5-min Rain = 0
KQU1 161807Z 02012G17KT 09/06 A2998 RMK A01 T00900060  RH  082%=      5-min Rain = 0
KQU1 161808Z 02010G17KT 09/06 A2998 RMK A01 T00890060  RH  082%=      5-min Rain = 0
KQU1 161809Z 03015KT 09/06 A2998 RMK A01 T00890059  RH  081%=      5-min Rain = 0
KQU1 161810Z 02014KT 09/06 A2998 RMK A01 T00890059  RH  082%=      5-min Rain = 0
KQU1 161811Z 03010G16KT 09/06 A2998 RMK A01 T00900060  RH  082%=      5-min Rain = 0
KQU1 161812Z 02011KT 09/06 A2998 RMK A01 T00900060  RH  082%=      5-min Rain = 0
KQU1 161813Z 01015KT 09/06 A2998 RMK A01 T00900059  RH  081%=      5-min Rain = 0
KQU1 161814Z 01015KT 09/06 A2998 RMK A01 T00900057  RH  080%=      5-min Rain = 0
KQU1 161815Z 01012G17KT 09/06 A2998 RMK A01 T00900058  RH  081%=      5-min Rain = 0
KQU1 161816Z 01012G17KT 09/06 A2998 RMK A01 T00900058  RH  081%=      5-min Rain = 0
KQU1 161817Z 02010G15KT 09/06 A2998 RMK A01 T00900059  RH  081%=      5-min Rain = 0
KQU1 161818Z 03011G17KT 09/06 A2998 RMK A01 T00900060  RH  081%=      5-min Rain = 0
KQU1 161819Z 02012KT 09/06 A2998 RMK A01 T00900059  RH  081%=      5-min Rain = 0
KQU1 161820Z 02009KT 09/06 A2998 RMK A01 T00900059  RH  081%=      5-min Rain = 0
KQU1 161821Z 02009G15KT 09/06 A2998 RMK A01 T00900062  RH  082%=      5-min Rain = 0
KQU1 161822Z 02008G13KT 09/06 A2998 RMK A01 T00910063  RH  082%=      5-min Rain = 0
KQU1 161823Z 03012G18KT 09/06 A2998 RMK A01 T00920062  RH  082%=      5-min Rain = 0
KQU1 161824Z 03010G15KT 09/06 A2998 RMK A01 T00910060  RH  081%=      5-min Rain = 0
KQU1 161825Z 03009G14KT 09/06 A2998 RMK A01 T00920061  RH  081%=      5-min Rain = 0
KQU1 161826Z 04008G14KT 09/06 A2998 RMK A01 T00920062  RH  082%=      5-min Rain = 0
KQU1 161827Z 03014KT 09/06 A2998 RMK A01 T00920059  RH  080%=      5-min Rain = 0
KQU1 161828Z 03010G15KT 09/06 A2998 RMK A01 T00920062  RH  082%=      5-min Rain = 0
KQU1 161829Z 03010G16KT 09/06 A2998 RMK A01 T00920061  RH  081%=      5-min Rain = 0
KQU1 161830Z 02009KT 09/06 A2998 RMK A01 T00930063  RH  082%=      5-min Rain = 0
KQU1 161831Z 02010KT 09/06 A2998 RMK A01 T00930062  RH  081%=      5-min Rain = 0
KQU1 161832Z 02013KT 09/06 A2998 RMK A01 T00930061  RH  080%=      5-min Rain = 0
KQU1 161833Z 02017G22KT 09/06 A2998 RMK A01 T00920055  RH  078%=      5-min Rain = 0
KQU1 161834Z 02015KT 09/06 A2998 RMK A01 T00910056  RH  079%=      5-min Rain = 0
KQU1 161835Z 02011G17KT 09/06 A2999 RMK A01 T00920058  RH  079%=      5-min Rain = 0
KQU1 161836Z 02017G22KT 09/06 A2999 RMK A01 T00920055  RH  078%=      5-min Rain = 0
KQU1 161837Z 02012G18KT 09/06 A2998 RMK A01 T00920056  RH  078%=      5-min Rain = 0
KQU1 161838Z 03010G15KT 09/06 A2998 RMK A01 T00930059  RH  079%=      5-min Rain = 0
KQU1 161839Z 04008G15KT 09/06 A2998 RMK A01 T00940060  RH  080%=      5-min Rain = 0
KQU1 161840Z 02008G13KT 09/06 A2998 RMK A01 T00940059  RH  079%=      5-min Rain = 0
KQU1 161841Z 01010KT 09/06 A2998 RMK A01 T00940058  RH  078%=      5-min Rain = 0
KQU1 161842Z 01009KT 09/06 A2998 RMK A01 T00940059  RH  079%=      5-min Rain = 0
KQU1 161843Z 02011KT 09/06 A2998 RMK A01 T00940059  RH  079%=      5-min Rain = 0
KQU1 161844Z 02012KT 09/06 A2998 RMK A01 T00940059  RH  079%=      5-min Rain = 0
KQU1 161845Z 02016KT 09/06 A2998 RMK A01 T00930057  RH  078%=      5-min Rain = 0
KQU1 161846Z 03012G19KT 09/06 A2998 RMK A01 T00930058  RH  079%=      5-min Rain = 0
KQU1 161847Z 03010KT 09/06 A2998 RMK A01 T00940060  RH  080%=      5-min Rain = 0
KQU1 161848Z 03010G15KT 09/06 A2998 RMK A01 T00940058  RH  078%=      5-min Rain = 0
KQU1 161849Z 03012G21KT 09/06 A2998 RMK A01 T00930056  RH  078%=      5-min Rain = 0
KQU1 161850Z 04010G15KT 09/06 A2998 RMK A01 T00930058  RH  079%=      5-min Rain = 0
KQU1 161851Z 03013G20KT 09/06 A2998 RMK A01 T00930059  RH  079%=      5-min Rain = 0
KQU1 161852Z 03014G21KT 09/06 A2998 RMK A01 T00930056  RH  078%=      5-min Rain = 0
KQU1 161853Z 02014G20KT 09/06 A2998 RMK A01 T00920056  RH  078%=      5-min Rain = 0
KQU1 161854Z 03015G23KT 09/06 A2998 RMK A01 T00920057  RH  079%=      5-min Rain = 0
KQU1 161855Z 03015G20KT 09/06 A2998 RMK A01 T00920056  RH  078%=      5-min Rain = 0
KQU1 161856Z 03012KT 09/06 A2999 RMK A01 T00920058  RH  079%=      5-min Rain = 0
KQU1 161857Z 03012G18KT 09/06 A2998 RMK A01 T00930057  RH  078%=      5-min Rain = 0
KQU1 161858Z 02013G20KT 09/06 A2999 RMK A01 T00930058  RH  079%=      5-min Rain = 0
KQU1 161859Z 02010KT 09/06 A2999 RMK A01 T00940060  RH  080%=      5-min Rain = 0
KQU1 161900Z 02011KT 10/06 A2999 RMK A01 T00950058  RH  078%=      5-min Rain = 0
KQU1 161901Z 02008KT 10/06 A2999 RMK A01 T00950062  RH  080%=      5-min Rain = 0
KQU1 161902Z 04009G14KT 10/06 A2998 RMK A01 T00960061  RH  079%=      5-min Rain = 0
KQU1 161903Z 03009G14KT 10/06 A2998 RMK A01 T00970062  RH  079%=      5-min Rain = 0
KQU1 161904Z 04009KT 10/06 A2998 RMK A01 T00970061  RH  078%=      5-min Rain = 0
KQU1 161905Z 01011G20KT 10/06 A2999 RMK A01 T00980061  RH  078%=      5-min Rain = 0
KQU1 161906Z 02017G22KT 10/06 A2999 RMK A01 T00970058  RH  076%=      5-min Rain = 0
KQU1 161907Z 03014KT 10/06 A2999 RMK A01 T00970058  RH  077%=      5-min Rain = 0
KQU1 161908Z 02012KT 10/06 A2999 RMK A01 T00970060  RH  077%=      5-min Rain = 0
KQU1 161909Z 02012G17KT 10/06 A2999 RMK A01 T00970058  RH  076%=      5-min Rain = 0
KQU1 161910Z 02014G19KT 10/06 A2999 RMK A01 T00970055  RH  075%=      5-min Rain = 0
KQU1 161911Z 02014G19KT 10/06 A2999 RMK A01 T00960057  RH  076%=      5-min Rain = 0
KQU1 161912Z 01014KT 10/06 A2999 RMK A01 T00960056  RH  076%=      5-min Rain = 0
KQU1 161913Z 02014G19KT 10/06 A2999 RMK A01 T00970057  RH  076%=      5-min Rain = 0
KQU1 161914Z 02014G19KT 10/06 A2999 RMK A01 T00970057  RH  076%=      5-min Rain = 0
KQU1 161915Z 02014KT 10/06 A2999 RMK A01 T00980056  RH  075%=      5-min Rain = 0
KQU1 161916Z 03012KT 10/06 A2999 RMK A01 T00980058  RH  076%=      5-min Rain = 0
KQU1 161917Z 03010G17KT 10/06 A2999 RMK A01 T00990058  RH  075%=      5-min Rain = 0
KQU1 161918Z 02008KT 10/06 A2999 RMK A01 T01010061  RH  076%=      5-min Rain = 0
KQU1 161919Z 03011KT 10/06 A2999 RMK A01 T01030060  RH  075%=      5-min Rain = 0
KQU1 161920Z 03010G15KT 10/06 A2999 RMK A01 T01040062  RH  075%=      5-min Rain = 0
KQU1 161921Z 02010KT 11/06 A2999 RMK A01 T01050061  RH  074%=      5-min Rain = 0
KQU1 161922Z 03006G11KT 11/07 A2999 RMK A01 T01070066  RH  076%=      5-min Rain = 0
KQU1 161923Z 04010G16KT 11/06 A2999 RMK A01 T01080063  RH  074%=      5-min Rain = 0
KQU1 161924Z 04008KT 11/06 A2999 RMK A01 T01090063  RH  073%=      5-min Rain = 0
KQU1 161925Z 02007KT 11/07 A2999 RMK A01 T01100066  RH  074%=      5-min Rain = 0
KQU1 161926Z 02006G11KT 11/07 A2999 RMK A01 T01130067  RH  074%=      5-min Rain = 0
KQU1 161927Z 02009KT 11/07 A2999 RMK A01 T01140065  RH  072%=      5-min Rain = 0
KQU1 161928Z 02012KT 11/06 A2999 RMK A01 T01140064  RH  071%=      5-min Rain = 0
KQU1 161929Z 01012G17KT 11/06 A2999 RMK A01 T01120058  RH  069%=      5-min Rain = 0
KQU1 161930Z 02009G14KT 11/06 A2999 RMK A01 T01110060  RH  071%=      5-min Rain = 0
KQU1 161931Z 02009KT 11/06 A2999 RMK A01 T01110061  RH  072%=      5-min Rain = 0
KQU1 161932Z 02014G19KT 11/06 A2999 RMK A01 T01100058  RH  071%=      5-min Rain = 0
KQU1 161933Z 02014G19KT 11/06 A2999 RMK A01 T01080056  RH  070%=      5-min Rain = 0
KQU1 161934Z 02013KT 11/06 A2999 RMK A01 T01060057  RH  071%=      5-min Rain = 0
KQU1 161935Z 03009KT 11/06 A2999 RMK A01 T01060059  RH  073%=      5-min Rain = 0
KQU1 161936Z 03009G16KT 11/06 A2999 RMK A01 T01060061  RH  073%=      5-min Rain = 0
KQU1 161937Z 03007G13KT 11/06 A2999 RMK A01 T01070063  RH  074%=      5-min Rain = 0
KQU1 161938Z 04011G16KT 11/06 A2999 RMK A01 T01070057  RH  071%=      5-min Rain = 0
KQU1 161939Z 03009G14KT 11/06 A2999 RMK A01 T01060061  RH  073%=      5-min Rain = 0
KQU1 161940Z 03011G19KT 11/06 A2999 RMK A01 T01070058  RH  072%=      5-min Rain = 0
KQU1 161941Z 04009G14KT 11/06 A2999 RMK A01 T01070058  RH  072%=      5-min Rain = 0
KQU1 161942Z 03007G15KT 11/06 A2999 RMK A01 T01070059  RH  072%=      5-min Rain = 0
KQU1 161943Z 03015G21KT 11/06 A2999 RMK A01 T01080059  RH  072%=      5-min Rain = 0
KQU1 161944Z 03010G15KT 11/06 A2999 RMK A01 T01080059  RH  072%=      5-min Rain = 0
KQU1 161945Z 02014G19KT 11/06 A2999 RMK A01 T01080060  RH  072%=      5-min Rain = 0
KQU1 161946Z 02013G18KT 11/06 A2999 RMK A01 T01080058  RH  071%=      5-min Rain = 0
KQU1 161947Z 02011G16KT 11/06 A2999 RMK A01 T01070059  RH  072%=      5-min Rain = 0
KQU1 161948Z 04008G13KT 11/06 A2999 RMK A01 T01080062  RH  073%=      5-min Rain = 0
KQU1 161949Z 05009KT 11/06 A2999 RMK A01 T01080061  RH  073%=      5-min Rain = 0
KQU1 161950Z 06007KT 11/06 A2999 RMK A01 T01080062  RH  073%=      5-min Rain = 0
KQU1 161951Z 04010KT 11/06 A2999 RMK A01 T01080058  RH  071%=      5-min Rain = 0
KQU1 161952Z 03007G13KT 11/06 A2999 RMK A01 T01070060  RH  072%=      5-min Rain = 0
KQU1 161953Z 04007KT 11/06 A2999 RMK A01 T01070061  RH  073%=      5-min Rain = 0
KQU1 161954Z 04006KT 11/06 A2999 RMK A01 T01080062  RH  073%=      5-min Rain = 0
KQU1 161955Z 04007G12KT 11/06 A2999 RMK A01 T01080061  RH  072%=      5-min Rain = 0
KQU1 161956Z 04010G18KT 11/06 A2999 RMK A01 T01080060  RH  072%=      5-min Rain = 0
KQU1 161957Z 03006KT 11/06 A2999 RMK A01 T01090061  RH  072%=      5-min Rain = 0
KQU1 161958Z 04006G13KT 11/06 A2999 RMK A01 T01100061  RH  072%=      5-min Rain = 0
KQU1 161959Z 03010G16KT 11/06 A2999 RMK A01 T01110058  RH  070%=      5-min Rain = 0
KQU1 162000Z 02010KT 11/06 A2999 RMK A01 T01110060  RH  071%=      5-min Rain = 0
KQU1 162001Z 03007KT 11/06 A2999 RMK A01 T01120061  RH  071%=      5-min Rain = 0
KQU1 162002Z 02008KT 11/06 A2999 RMK A01 T01130060  RH  070%=      5-min Rain = 0
KQU1 162003Z 03012G19KT 11/06 A2999 RMK A01 T01120056  RH  068%=      5-min Rain = 0
KQU1 162004Z 03007G15KT 11/06 A2999 RMK A01 T01120059  RH  070%=      5-min Rain = 0
KQU1 162005Z 02011G16KT 11/06 A2999 RMK A01 T01120058  RH  069%=      5-min Rain = 0
KQU1 162006Z 02009KT 11/06 A2999 RMK A01 T01120058  RH  069%=      5-min Rain = 0
KQU1 162007Z 03014G19KT 11/06 A2999 RMK A01 T01130055  RH  068%=      5-min Rain = 0
KQU1 162008Z 03014G21KT 11/05 A2999 RMK A01 T01120053  RH  067%=      5-min Rain = 0
KQU1 162009Z 03014G19KT 11/05 A2999 RMK A01 T01120053  RH  067%=      5-min Rain = 0
KQU1 162010Z 03010G18KT 11/06 A2999 RMK A01 T01130056  RH  068%=      5-min Rain = 0
KQU1 162011Z 02014KT 11/06 A2999 RMK A01 T01140055  RH  067%=      5-min Rain = 0
KQU1 162012Z 02013G20KT 12/06 A2999 RMK A01 T01150057  RH  067%=      5-min Rain = 0
KQU1 162013Z 01014KT 12/06 A2999 RMK A01 T01150055  RH  067%=      5-min Rain = 0
KQU1 162014Z 02013G18KT 11/06 A2999 RMK A01 T01140056  RH  068%=      5-min Rain = 0
KQU1 162015Z 02014G20KT 11/06 A2999 RMK A01 T01130055  RH  067%=      5-min Rain = 0
KQU1 162016Z 02014G23KT 11/05 A2999 RMK A01 T01120054  RH  068%=      5-min Rain = 0
KQU1 162017Z 03017KT 11/05 A2999 RMK A01 T01110051  RH  066%=      5-min Rain = 0
KQU1 162018Z 03015G22KT 11/05 A2999 RMK A01 T01100051  RH  067%=      5-min Rain = 0
KQU1 162019Z 02013KT 11/05 A2999 RMK A01 T01100053  RH  068%=      5-min Rain = 0
KQU1 162020Z 02014KT 11/05 A2999 RMK A01 T01110052  RH  067%=      5-min Rain = 0
KQU1 162021Z 02015G21KT 11/06 A2999 RMK A01 T01120055  RH  068%=      5-min Rain = 0
KQU1 162022Z 03012G17KT 11/06 A2999 RMK A01 T01140057  RH  068%=      5-min Rain = 0
KQU1 162023Z 02010KT 12/06 A2999 RMK A01 T01170062  RH  069%=      5-min Rain = 0
KQU1 162024Z 03010G16KT 12/06 A2999 RMK A01 T01190059  RH  067%=      5-min Rain = 0
KQU1 162025Z 03010G15KT 12/06 A2999 RMK A01 T01190058  RH  066%=      5-min Rain = 0
KQU1 162026Z 03014G20KT 12/05 A2999 RMK A01 T01180050  RH  063%=      5-min Rain = 0
KQU1 162027Z 03013G19KT 12/05 A2999 RMK A01 T01150049  RH  064%=      5-min Rain = 0
KQU1 162028Z 03015KT 11/05 A2999 RMK A01 T01140048  RH  064%=      5-min Rain = 0
KQU1 162029Z 03014G19KT 11/05 A2999 RMK A01 T01130047  RH  064%=      5-min Rain = 0
KQU1 162030Z 03015G21KT 11/05 A2999 RMK A01 T01120046  RH  064%=      5-min Rain = 0
KQU1 162031Z 02017G22KT 11/05 A2999 RMK A01 T01120046  RH  064%=      5-min Rain = 0
KQU1 162032Z 02015G22KT 11/05 A2999 RMK A01 T01120048  RH  065%=      5-min Rain = 0
KQU1 162033Z 02014KT 11/05 A2999 RMK A01 T01110046  RH  064%=      5-min Rain = 0
KQU1 162034Z 03008G14KT 11/05 A2999 RMK A01 T01110049  RH  066%=      5-min Rain = 0
KQU1 162035Z 03011G16KT 11/05 A2999 RMK A01 T01110048  RH  065%=      5-min Rain = 0
KQU1 162036Z 02011G16KT 11/05 A2999 RMK A01 T01120048  RH  065%=      5-min Rain = 0
KQU1 162037Z 03011G16KT 11/05 A2999 RMK A01 T01120047  RH  064%=      5-min Rain = 0
KQU1 162038Z 03014G20KT 11/05 A2999 RMK A01 T01120046  RH  064%=      5-min Rain = 0
KQU1 162039Z 02012G17KT 11/05 A2999 RMK A01 T01130047  RH  064%=      5-min Rain = 0
KQU1 162040Z 01013G19KT 11/05 A2999 RMK A01 T01130048  RH  064%=      5-min Rain = 0
KQU1 162041Z 03017KT 11/04 A2999 RMK A01 T01130043  RH  062%=      5-min Rain = 0
KQU1 162042Z 02011G17KT 11/05 A2999 RMK A01 T01120047  RH  064%=      5-min Rain = 0
KQU1 162043Z 03012G17KT 11/05 A2999 RMK A01 T01130049  RH  065%=      5-min Rain = 0
KQU1 162044Z 04014G24KT 11/05 A2999 RMK A01 T01120050  RH  065%=      5-min Rain = 0
KQU1 162045Z 03014G20KT 11/05 A2999 RMK A01 T01120051  RH  066%=      5-min Rain = 0
KQU1 162046Z 03016G25KT 11/05 A2999 RMK A01 T01100047  RH  065%=      5-min Rain = 0
KQU1 162047Z 03015G21KT 11/05 A2999 RMK A01 T01080047  RH  066%=      5-min Rain = 0
KQU1 162048Z 02020G26KT 11/05 A2999 RMK A01 T01070048  RH  067%=      5-min Rain = 0
KQU1 162049Z 02015G20KT 11/05 A2999 RMK A01 T01070050  RH  068%=      5-min Rain = 0
KQU1 162050Z 03016G23KT 11/05 A2999 RMK A01 T01060049  RH  068%=      5-min Rain = 0
KQU1 162051Z 03017KT 11/05 A2999 RMK A01 T01050049  RH  068%=      5-min Rain = 0
KQU1 162052Z 02017G22KT 11/05 A2999 RMK A01 T01050048  RH  068%=      5-min Rain = 0
KQU1 162053Z 02015G23KT 11/05 A2999 RMK A01 T01050050  RH  069%=      5-min Rain = 0
KQU1 162054Z 04009G16KT 11/05 A2999 RMK A01 T01050051  RH  069%=      5-min Rain = 0
KQU1 162055Z 04011G20KT 11/05 A2999 RMK A01 T01050053  RH  070%=      5-min Rain = 0
KQU1 162056Z 04010G19KT 11/05 A2999 RMK A01 T01060053  RH  070%=      5-min Rain = 0
KQU1 162057Z 04010G20KT 11/05 A2999 RMK A01 T01070052  RH  069%=      5-min Rain = 0
KQU1 162058Z 03011G20KT 11/05 A2999 RMK A01 T01060049  RH  068%=      5-min Rain = 0
KQU1 162059Z 03009G16KT 11/05 A2999 RMK A01 T01070051  RH  068%=      5-min Rain = 0
KQU1 162100Z 04013G19KT 11/05 A2999 RMK A01 T01070049  RH  067%=      5-min Rain = 0
KQU1 162101Z 03010KT 11/05 A2999 RMK A01 T01070050  RH  068%=      5-min Rain = 0
KQU1 162102Z 04013KT 11/05 A2999 RMK A01 T01080051  RH  068%=      5-min Rain = 0
KQU1 162103Z 03010G16KT 11/05 A2999 RMK A01 T01080049  RH  067%=      5-min Rain = 0
KQU1 162104Z 04009G15KT 11/05 A2999 RMK A01 T01080052  RH  068%=      5-min Rain = 0
KQU1 162105Z 02011KT 11/05 A2999 RMK A01 T01100053  RH  068%=      5-min Rain = 0
KQU1 162106Z 02017KT 11/04 A2999 RMK A01 T01100043  RH  063%=      5-min Rain = 0
KQU1 162107Z 02014G22KT 11/04 A2999 RMK A01 T01090042  RH  063%=      5-min Rain = 0
KQU1 162108Z 02014G21KT 11/04 A2999 RMK A01 T01080042  RH  064%=      5-min Rain = 0
KQU1 162109Z 02014G19KT 11/05 A2999 RMK A01 T01080045  RH  065%=      5-min Rain = 0
KQU1 162110Z 02018G24KT 11/04 A2999 RMK A01 T01080041  RH  063%=      5-min Rain = 0
KQU1 162111Z 02015G21KT 11/04 A2999 RMK A01 T01080041  RH  063%=      5-min Rain = 0
KQU1 162112Z 03014G23KT 11/04 A2999 RMK A01 T01080043  RH  064%=      5-min Rain = 0
KQU1 162113Z 02018KT 11/04 A2999 RMK A01 T01090039  RH  062%=      5-min Rain = 0
KQU1 162114Z 02016G22KT 11/04 A2999 RMK A01 T01100040  RH  062%=      5-min Rain = 0
KQU1 162115Z 02017G22KT 11/04 A2999 RMK A01 T01100043  RH  063%=      5-min Rain = 0
KQU1 162116Z 02017G24KT 11/04 A2999 RMK A01 T01110042  RH  062%=      5-min Rain = 0
KQU1 162117Z 02014G19KT 11/04 A2999 RMK A01 T01110043  RH  063%=      5-min Rain = 0
KQU1 162118Z 01014G20KT 11/04 A2999 RMK A01 T01120043  RH  063%=      5-min Rain = 0
KQU1 162119Z 02017G25KT 11/04 A2999 RMK A01 T01110038  RH  061%=      5-min Rain = 0
KQU1 162120Z 02014KT 11/04 A2999 RMK A01 T01110040  RH  062%=      5-min Rain = 0
KQU1 162121Z 02016KT 11/04 A2999 RMK A01 T01110039  RH  061%=      5-min Rain = 0
KQU1 162122Z 01015KT 11/04 A2999 RMK A01 T01110037  RH  060%=      5-min Rain = 0
KQU1 162123Z 01017G24KT 11/04 A2999 RMK A01 T01100035  RH  060%=      5-min Rain = 0
KQU1 162124Z 02014KT 11/04 A2999 RMK A01 T01100038  RH  061%=      5-min Rain = 0
KQU1 162125Z 02014G20KT 11/04 A2999 RMK A01 T01100038  RH  061%=      5-min Rain = 0
KQU1 162126Z 02015G20KT 11/04 A2999 RMK A01 T01100041  RH  063%=      5-min Rain = 0
KQU1 162127Z 02013KT 11/04 A2999 RMK A01 T01110042  RH  062%=      5-min Rain = 0
KQU1 162128Z 02013G19KT 11/04 A2999 RMK A01 T01110043  RH  063%=      5-min Rain = 0
KQU1 162129Z 03014G19KT 11/04 A2999 RMK A01 T01120041  RH  062%=      5-min Rain = 0
KQU1 162130Z 03011G18KT 11/05 A2999 RMK A01 T01110045  RH  064%=      5-min Rain = 0
KQU1 162131Z 03010G19KT 11/05 A2999 RMK A01 T01120045  RH  063%=      5-min Rain = 0
KQU1 162132Z 03009G20KT 11/05 A2999 RMK A01 T01120045  RH  063%=      5-min Rain = 0
KQU1 162133Z 03007G14KT 11/05 A2999 RMK A01 T01120048  RH  065%=      5-min Rain = 0
KQU1 162134Z 02010G21KT 11/05 A2999 RMK A01 T01130046  RH  064%=      5-min Rain = 0
KQU1 162135Z 03014G19KT 11/04 A2999 RMK A01 T01120041  RH  062%=      5-min Rain = 0
KQU1 162136Z 02009G14KT 11/05 A2999 RMK A01 T01120046  RH  064%=      5-min Rain = 0
KQU1 162137Z 02012G19KT 11/04 A2999 RMK A01 T01120043  RH  062%=      5-min Rain = 0
KQU1 162138Z 03009G15KT 11/04 A2999 RMK A01 T01130043  RH  062%=      5-min Rain = 0
KQU1 162139Z 02005G12KT 11/05 A2999 RMK A01 T01140048  RH  064%=      5-min Rain = 0
KQU1 162140Z 04010G18KT 12/05 A2999 RMK A01 T01150048  RH  064%=      5-min Rain = 0
KQU1 162141Z 04007G16KT 12/05 A2999 RMK A01 T01150049  RH  064%=      5-min Rain = 0
KQU1 162142Z 03011G18KT 11/05 A2999 RMK A01 T01140045  RH  063%=      5-min Rain = 0
KQU1 162143Z 03012G18KT 11/04 A2999 RMK A01 T01120044  RH  063%=      5-min Rain = 0
KQU1 162144Z 03012G18KT 11/04 A2999 RMK A01 T01110042  RH  063%=      5-min Rain = 0
KQU1 162145Z 03011G18KT 11/04 A2999 RMK A01 T01100041  RH  062%=      5-min Rain = 0
KQU1 162146Z 03015G23KT 11/04 A2999 RMK A01 T01100041  RH  063%=      5-min Rain = 0
KQU1 162147Z 03015G20KT 11/04 A2999 RMK A01 T01090040  RH  062%=      5-min Rain = 0
KQU1 162148Z 03015G21KT 11/04 A2999 RMK A01 T01090040  RH  062%=      5-min Rain = 0
KQU1 162149Z 02017G24KT 11/04 A2999 RMK A01 T01090036  RH  061%=      5-min Rain = 0
KQU1 162150Z 03015G21KT 11/04 A2999 RMK A01 T01090036  RH  061%=      5-min Rain = 0
KQU1 162151Z 03018G27KT 11/03 A2999 RMK A01 T01090033  RH  060%=      5-min Rain = 0
KQU1 162152Z 04014G21KT 11/04 A2999 RMK A01 T01090036  RH  061%=      5-min Rain = 0
KQU1 162153Z 03016G24KT 11/03 A2999 RMK A01 T01090034  RH  060%=      5-min Rain = 0
KQU1 162154Z 03016KT 11/04 A2999 RMK A01 T01090036  RH  061%=      5-min Rain = 0
KQU1 162155Z 02017G24KT 11/03 A2999 RMK A01 T01090034  RH  060%=      5-min Rain = 0
KQU1 162156Z 02012KT 11/04 A2999 RMK A01 T01090038  RH  062%=      5-min Rain = 0
KQU1 162157Z 03012G20KT 11/04 A30 RMK A01 T01090039  RH  062%=      5-min Rain = 0
KQU1 162158Z 04012G18KT 11/04 A30 RMK A01 T01090040  RH  062%=      5-min Rain = 0
KQU1 162159Z 05013G19KT 11/04 A30 RMK A01 T01090041  RH  062%=      5-min Rain = 0
KQU1 162200Z 03007G16KT 11/04 A30 RMK A01 T01100043  RH  063%=      5-min Rain = 0
KQU1 162201Z 04009G14KT 11/04 A30 RMK A01 T01110042  RH  063%=      5-min Rain = 0
KQU1 162202Z 04012G22KT 11/04 A30 RMK A01 T01100041  RH  062%=      5-min Rain = 0
KQU1 162203Z 05011G19KT 11/04 A30 RMK A01 T01090039  RH  062%=      5-min Rain = 0
KQU1 162204Z 04012KT 11/04 A30 RMK A01 T01090040  RH  063%=      5-min Rain = 0
KQU1 162205Z 04013KT 11/04 A30 RMK A01 T01080040  RH  063%=      5-min Rain = 0
KQU1 162206Z 02012G18KT 11/04 A30 RMK A01 T01080043  RH  064%=      5-min Rain = 0
KQU1 162207Z 03013KT 11/04 A30 RMK A01 T01080039  RH  062%=      5-min Rain = 0
KQU1 162208Z 04012G17KT 11/04 A30 RMK A01 T01080040  RH  063%=      5-min Rain = 0
KQU1 162209Z 02015G21KT 11/04 A30 RMK A01 T01080043  RH  064%=      5-min Rain = 0
KQU1 162210Z 02014G19KT 11/04 A30 RMK A01 T01080039  RH  063%=      5-min Rain = 0
KQU1 162211Z 03013G21KT 11/04 A30 RMK A01 T01080041  RH  063%=      5-min Rain = 0
KQU1 162212Z 03012G19KT 11/04 A30 RMK A01 T01070041  RH  063%=      5-min Rain = 0
KQU1 162213Z 03012G18KT 11/04 A30 RMK A01 T01070040  RH  063%=      5-min Rain = 0
KQU1 162214Z 03011G20KT 11/04 A30 RMK A01 T01060040  RH  064%=      5-min Rain = 0
KQU1 162215Z 03010G19KT 11/04 A30 RMK A01 T01050038  RH  064%=      5-min Rain = 0
KQU1 162216Z 03006KT 10/04 A3001 RMK A01 T01040041  RH  065%=      5-min Rain = 0
KQU1 162217Z 03010G17KT 10/04 A3001 RMK A01 T01040041  RH  065%=      5-min Rain = 0
KQU1 162218Z 03016G22KT 10/04 A30 RMK A01 T01040038  RH  064%=      5-min Rain = 0
KQU1 162219Z 03013G18KT 10/04 A30 RMK A01 T01030037  RH  064%=      5-min Rain = 0
KQU1 162220Z 04011G18KT 10/04 A3001 RMK A01 T01030038  RH  064%=      5-min Rain = 0
KQU1 162221Z 04010G19KT 10/04 A3001 RMK A01 T01030040  RH  065%=      5-min Rain = 0
KQU1 162222Z 04012G21KT 10/04 A3001 RMK A01 T01040039  RH  064%=      5-min Rain = 0
KQU1 162223Z 03012G19KT 10/04 A3001 RMK A01 T01040037  RH  063%=      5-min Rain = 0
KQU1 162224Z 03014KT 10/04 A3001 RMK A01 T01030039  RH  064%=      5-min Rain = 0
KQU1 162225Z 03008G13KT 10/04 A3001 RMK A01 T01040042  RH  065%=      5-min Rain = 0
KQU1 162226Z 03012G19KT 10/04 A3001 RMK A01 T01040042  RH  065%=      5-min Rain = 0
KQU1 162227Z 04013G21KT 10/04 A3001 RMK A01 T01040037  RH  063%=      5-min Rain = 0
KQU1 162228Z 03010G17KT 10/04 A3001 RMK A01 T01030038  RH  064%=      5-min Rain = 0
KQU1 162229Z 04013G19KT 10/04 A3001 RMK A01 T01030038  RH  064%=      5-min Rain = 0
KQU1 162230Z 03015G22KT 10/04 A3001 RMK A01 T01010035  RH  063%=      5-min Rain = 0
KQU1 162231Z 02015G22KT 10/03 A3001 RMK A01 T01000033  RH  063%=      5-min Rain = 0
KQU1 162232Z 03017G24KT 10/03 A3001 RMK A01 T00990032  RH  063%=      5-min Rain = 0
KQU1 162233Z 03014G20KT 10/03 A3002 RMK A01 T00990033  RH  064%=      5-min Rain = 0
KQU1 162234Z 02014G19KT 10/04 A3002 RMK A01 T00980035  RH  064%=      5-min Rain = 0
KQU1 162235Z 03014KT 10/04 A3002 RMK A01 T00990035  RH  065%=      5-min Rain = 0
KQU1 162236Z 02009G15KT 10/04 A3002 RMK A01 T00990039  RH  066%=      5-min Rain = 0
KQU1 162237Z 02010G15KT 10/04 A3002 RMK A01 T01000038  RH  065%=      5-min Rain = 0
KQU1 162238Z 02007KT 10/04 A3002 RMK A01 T01010039  RH  065%=      5-min Rain = 0
KQU1 162239Z 02007G12KT 10/04 A3002 RMK A01 T01020038  RH  065%=      5-min Rain = 0
KQU1 162240Z 02007G13KT 10/04 A3002 RMK A01 T01020040  RH  065%=      5-min Rain = 0
KQU1 162241Z 03014G25KT 10/04 A3002 RMK A01 T01020038  RH  065%=      5-min Rain = 0
KQU1 162242Z 02017G25KT 10/03 A3002 RMK A01 T00990034  RH  064%=      5-min Rain = 0
KQU1 162243Z 03017G22KT 10/03 A3003 RMK A01 T00970034  RH  065%=      5-min Rain = 0
KQU1 162244Z 03011G18KT 10/04 A3003 RMK A01 T00950035  RH  066%=      5-min Rain = 0
KQU1 162245Z 03017KT 09/03 A3003 RMK A01 T00940033  RH  066%=      5-min Rain = 0
KQU1 162246Z 03017G25KT 09/03 A3003 RMK A01 T00940033  RH  066%=      5-min Rain = 0
KQU1 162247Z 03015G21KT 09/03 A3003 RMK A01 T00930034  RH  066%=      5-min Rain = 0
KQU1 162248Z 03017G23KT 09/03 A3003 RMK A01 T00930031  RH  065%=      5-min Rain = 0
KQU1 162249Z 03014KT 09/03 A3003 RMK A01 T00930033  RH  066%=      5-min Rain = 0
KQU1 162250Z 03015G22KT 09/03 A3003 RMK A01 T00930031  RH  065%=      5-min Rain = 0
KQU1 162251Z 03014G19KT 09/03 A3003 RMK A01 T00930033  RH  066%=      5-min Rain = 0
KQU1 162252Z 03016G21KT 09/03 A3003 RMK A01 T00940030  RH  064%=      5-min Rain = 0
KQU1 162253Z 03015G20KT 09/03 A3003 RMK A01 T00930029  RH  064%=      5-min Rain = 0
KQU1 162254Z 03012G20KT 09/03 A3003 RMK A01 T00940032  RH  065%=      5-min Rain = 0
KQU1 162255Z 04014G19KT 09/03 A3003 RMK A01 T00940028  RH  063%=      5-min Rain = 0
KQU1 162256Z 03016G21KT 09/03 A3003 RMK A01 T00940026  RH  062%=      5-min Rain = 0
KQU1 162257Z 03016G22KT 09/03 A3003 RMK A01 T00930026  RH  063%=      5-min Rain = 0
KQU1 162258Z 02012G17KT 09/03 A3003 RMK A01 T00940029  RH  064%=      5-min Rain = 0
KQU1 162259Z 02011G17KT 09/03 A3003 RMK A01 T00940030  RH  064%=      5-min Rain = 0
KQU1 162300Z 02012G18KT 10/03 A3003 RMK A01 T00950033  RH  065%=      5-min Rain = 0
KQU1 162301Z 02013G19KT 10/03 A3003 RMK A01 T00950030  RH  064%=      5-min Rain = 0
KQU1 162302Z 03015G22KT 09/03 A3003 RMK A01 T00940029  RH  064%=      5-min Rain = 0
KQU1 162303Z 03018G27KT 09/03 A3003 RMK A01 T00920028  RH  064%=      5-min Rain = 0
KQU1 162304Z 03020G27KT 09/03 A3003 RMK A01 T00900025  RH  064%=      5-min Rain = 0
KQU1 162305Z 03016G23KT 09/03 A3003 RMK A01 T00890027  RH  065%=      5-min Rain = 0
KQU1 162306Z 02015G20KT 09/03 A3003 RMK A01 T00880027  RH  065%=      5-min Rain = 0
KQU1 162307Z 02017KT 09/03 A3003 RMK A01 T00880026  RH  065%=      5-min Rain = 0
KQU1 162308Z 03012G18KT 09/03 A3003 RMK A01 T00880027  RH  066%=      5-min Rain = 0
KQU1 162309Z 03010G17KT 09/03 A3004 RMK A01 T00880030  RH  067%=      5-min Rain = 0
KQU1 162310Z 04010G16KT 09/03 A3004 RMK A01 T00880029  RH  066%=      5-min Rain = 0
KQU1 162311Z 03011G16KT 09/03 A3004 RMK A01 T00890029  RH  066%=      5-min Rain = 0
KQU1 162312Z 02011G20KT 09/03 A3004 RMK A01 T00890030  RH  067%=      5-min Rain = 0
KQU1 162313Z 02015G21KT 09/03 A3004 RMK A01 T00880026  RH  065%=      5-min Rain = 0
KQU1 162314Z 03012G17KT 09/03 A3004 RMK A01 T00880028  RH  066%=      5-min Rain = 0
KQU1 162315Z 03016G22KT 09/03 A3004 RMK A01 T00880025  RH  065%=      5-min Rain = 0
KQU1 162316Z 03014G21KT 09/03 A3004 RMK A01 T00870025  RH  065%=      5-min Rain = 0
KQU1 162317Z 02011G17KT 09/03 A3005 RMK A01 T00870027  RH  066%=      5-min Rain = 0
KQU1 162318Z 02015KT 09/02 A3005 RMK A01 T00860023  RH  065%=      5-min Rain = 0
KQU1 162319Z 03011G18KT 09/02 A3005 RMK A01 T00850024  RH  065%=      5-min Rain = 0
KQU1 162320Z 03013G20KT 09/03 A3005 RMK A01 T00850025  RH  066%=      5-min Rain = 0
KQU1 162321Z 03013KT 09/02 A3005 RMK A01 T00850024  RH  065%=      5-min Rain = 0
KQU1 162322Z 05010G18KT 09/03 A3005 RMK A01 T00850025  RH  066%=      5-min Rain = 0
KQU1 162323Z 03012KT 09/03 A3005 RMK A01 T00850026  RH  066%=      5-min Rain = 0
KQU1 162324Z 03012G21KT 09/03 A3005 RMK A01 T00850025  RH  066%=      5-min Rain = 0
KQU1 162325Z 04007G15KT 09/03 A3005 RMK A01 T00850026  RH  066%=      5-min Rain = 0
KQU1 162326Z 03010G19KT 09/03 A3005 RMK A01 T00860025  RH  065%=      5-min Rain = 0
KQU1 162327Z 02011G17KT 09/02 A3005 RMK A01 T00860024  RH  065%=      5-min Rain = 0
KQU1 162328Z 02011KT 09/03 A3005 RMK A01 T00860026  RH  066%=      5-min Rain = 0
KQU1 162329Z 04011G18KT 09/03 A3005 RMK A01 T00860025  RH  066%=      5-min Rain = 0
KQU1 162330Z 05010G19KT 09/03 A3005 RMK A01 T00860026  RH  066%=      5-min Rain = 0
KQU1 162331Z 04013G18KT 09/02 A3005 RMK A01 T00850024  RH  065%=      5-min Rain = 0
KQU1 162332Z 04011G16KT 09/02 A3005 RMK A01 T00850024  RH  066%=      5-min Rain = 0
KQU1 162333Z 03007G12KT 09/03 A3005 RMK A01 T00850026  RH  067%=      5-min Rain = 0
KQU1 162334Z 04007KT 09/03 A3005 RMK A01 T00850027  RH  067%=      5-min Rain = 0
KQU1 162335Z 03010G17KT 09/03 A3005 RMK A01 T00850027  RH  067%=      5-min Rain = 0
KQU1 162336Z 03010G20KT 09/03 A3005 RMK A01 T00850026  RH  067%=      5-min Rain = 0
KQU1 162337Z 04009G17KT 09/03 A3005 RMK A01 T00850026  RH  067%=      5-min Rain = 0
KQU1 162338Z 04012G18KT 08/02 A3005 RMK A01 T00840023  RH  065%=      5-min Rain = 0
KQU1 162339Z 03017KT 08/02 A3005 RMK A01 T00840024  RH  066%=      5-min Rain = 0
KQU1 162340Z 04011G17KT 08/03 A3005 RMK A01 T00840025  RH  066%=      5-min Rain = 0
KQU1 162341Z 03016G23KT 08/02 A3005 RMK A01 T00840023  RH  066%=      5-min Rain = 0
KQU1 162342Z 04011KT 08/03 A3005 RMK A01 T00840025  RH  066%=      5-min Rain = 0
KQU1 162343Z 04008G14KT 08/03 A3005 RMK A01 T00840027  RH  067%=      5-min Rain = 0
KQU1 162344Z 04012G17KT 08/02 A3005 RMK A01 T00840023  RH  065%=      5-min Rain = 0
KQU1 162345Z 04011G24KT 08/02 A3005 RMK A01 T00840023  RH  065%=      5-min Rain = 0
KQU1 162346Z 04012G20KT 08/02 A3005 RMK A01 T00840023  RH  065%=      5-min Rain = 0
KQU1 162347Z 04009G14KT 08/02 A3005 RMK A01 T00840023  RH  066%=      5-min Rain = 0
KQU1 162348Z 04010G18KT 08/02 A3005 RMK A01 T00840022  RH  065%=      5-min Rain = 0
KQU1 162349Z 03010G21KT 08/02 A3005 RMK A01 T00840023  RH  066%=      5-min Rain = 0
KQU1 162350Z 04014G19KT 08/02 A3005 RMK A01 T00840022  RH  065%=      5-min Rain = 0
KQU1 162351Z 05010G17KT 08/02 A3006 RMK A01 T00840024  RH  066%=      5-min Rain = 0
KQU1 162352Z 03012G19KT 08/02 A3006 RMK A01 T00840024  RH  066%=      5-min Rain = 0
KQU1 162353Z 03008G14KT 08/03 A3006 RMK A01 T00840025  RH  067%=      5-min Rain = 0
KQU1 162354Z 03007G14KT 08/03 A3006 RMK A01 T00840027  RH  067%=      5-min Rain = 0
KQU1 162355Z 04009KT 09/03 A3006 RMK A01 T00850028  RH  067%=      5-min Rain = 0
KQU1 162356Z 03007G16KT 09/03 A3006 RMK A01 T00850028  RH  067%=      5-min Rain = 0
KQU1 162357Z 04010KT 09/03 A3006 RMK A01 T00850025  RH  066%=      5-min Rain = 0
KQU1 162358Z 03010G15KT 08/03 A3006 RMK A01 T00840025  RH  066%=      5-min Rain = 0
KQU1 162359Z 03011G18KT 08/03 A3006 RMK A01 T00840025  RH  066%=      5-min Rain = 0
KQU1 170000Z 02007G14KT 08/03 A3006 RMK A01 T00840026  RH  067%=      5-min Rain = 0
KQU1 170001Z 04005KT 08/03 A3006 RMK A01 T00840028  RH  068%=      5-min Rain = 0
KQU1 170002Z 04008G14KT 08/03 A3006 RMK A01 T00840026  RH  067%=      5-min Rain = 0
KQU1 170003Z 03010G16KT 08/03 A3006 RMK A01 T00830025  RH  067%=      5-min Rain = 0
KQU1 170004Z 04012G18KT 08/03 A3006 RMK A01 T00830025  RH  067%=      5-min Rain = 0
KQU1 170005Z 04009G15KT 08/03 A3006 RMK A01 T00830026  RH  067%=      5-min Rain = 0
KQU1 170006Z 04010G19KT 08/03 A3006 RMK A01 T00830025  RH  067%=      5-min Rain = 0
KQU1 170007Z 05009G19KT 08/03 A3006 RMK A01 T00820026  RH  067%=      5-min Rain = 0
KQU1 170008Z 03018KT 08/02 A3006 RMK A01 T00820022  RH  066%=      5-min Rain = 0
KQU1 170009Z 03012KT 08/02 A3006 RMK A01 T00810023  RH  067%=      5-min Rain = 0
KQU1 170010Z 04010G17KT 08/02 A3006 RMK A01 T00810024  RH  067%=      5-min Rain = 0
KQU1 170011Z 04013G21KT 08/02 A3006 RMK A01 T00810022  RH  066%=      5-min Rain = 0
KQU1 170012Z 04011G17KT 08/02 A3006 RMK A01 T00810022  RH  066%=      5-min Rain = 0
KQU1 170013Z 04010G18KT 08/02 A3006 RMK A01 T00810022  RH  067%=      5-min Rain = 0
KQU1 170014Z 05012G19KT 08/02 A3006 RMK A01 T00810022  RH  067%=      5-min Rain = 0
KQU1 170015Z 04011G19KT 08/02 A3007 RMK A01 T00810022  RH  067%=      5-min Rain = 0
KQU1 170016Z 04012G18KT 08/02 A3007 RMK A01 T00810023  RH  067%=      5-min Rain = 0
KQU1 170017Z 03012G21KT 08/02 A3007 RMK A01 T00810022  RH  067%=      5-min Rain = 0
KQU1 170018Z 03007KT 08/03 A3007 RMK A01 T00810025  RH  068%=      5-min Rain = 0
KQU1 170019Z 03014G20KT 08/02 A3007 RMK A01 T00810023  RH  067%=      5-min Rain = 0
KQU1 170020Z 03012G19KT 08/02 A3007 RMK A01 T00800022  RH  067%=      5-min Rain = 0
KQU1 170021Z 02014KT 08/02 A3007 RMK A01 T00800022  RH  067%=      5-min Rain = 0
KQU1 170022Z 03010G15KT 08/02 A3007 RMK A01 T00800022  RH  067%=      5-min Rain = 0
KQU1 170023Z 03012G18KT 08/02 A3007 RMK A01 T00800023  RH  067%=      5-min Rain = 0
KQU1 170024Z 03008G16KT 08/02 A3007 RMK A01 T00800023  RH  067%=      5-min Rain = 0
KQU1 170025Z 05008G14KT 08/02 A3007 RMK A01 T00800024  RH  068%=      5-min Rain = 0
KQU1 170026Z 05006G12KT 08/03 A3007 RMK A01 T00800025  RH  068%=      5-min Rain = 0
KQU1 170027Z 04008G15KT 08/02 A3007 RMK A01 T00800024  RH  068%=      5-min Rain = 0
KQU1 170028Z 04009G14KT 08/02 A3007 RMK A01 T00790023  RH  067%=      5-min Rain = 0
KQU1 170029Z 03007G14KT 08/02 A3008 RMK A01 T00790023  RH  068%=      5-min Rain = 0
KQU1 170030Z 03008G14KT 08/02 A3008 RMK A01 T00790023  RH  068%=      5-min Rain = 0
KQU1 170031Z 04013G20KT 08/02 A3008 RMK A01 T00790021  RH  067%=      5-min Rain = 0
KQU1 170032Z 03013G18KT 08/02 A3008 RMK A01 T00780020  RH  066%=      5-min Rain = 0
KQU1 170033Z 03012G17KT 08/02 A3008 RMK A01 T00780021  RH  067%=      5-min Rain = 0
KQU1 170034Z 03010G15KT 08/02 A3008 RMK A01 T00780022  RH  068%=      5-min Rain = 0
KQU1 170035Z 03010G17KT 08/02 A3008 RMK A01 T00780022  RH  068%=      5-min Rain = 0
KQU1 170036Z 03008KT 08/02 A3008 RMK A01 T00780024  RH  069%=      5-min Rain = 0
KQU1 170037Z 04011G17KT 08/02 A3008 RMK A01 T00780023  RH  068%=      5-min Rain = 0
KQU1 170038Z 03008G14KT 08/02 A3008 RMK A01 T00780022  RH  068%=      5-min Rain = 0
KQU1 170039Z 04010G20KT 08/02 A3008 RMK A01 T00780022  RH  068%=      5-min Rain = 0
KQU1 170040Z 04014G22KT 08/02 A3008 RMK A01 T00770020  RH  067%=      5-min Rain = 0
KQU1 170041Z 05009G15KT 08/02 A3008 RMK A01 T00770021  RH  067%=      5-min Rain = 0
KQU1 170042Z 04011G19KT 08/02 A3008 RMK A01 T00770020  RH  067%=      5-min Rain = 0
KQU1 170043Z 04008G14KT 08/02 A3008 RMK A01 T00770021  RH  068%=      5-min Rain = 0
KQU1 170044Z 05010G16KT 08/02 A3008 RMK A01 T00770019  RH  067%=      5-min Rain = 0
KQU1 170045Z 04011G16KT 08/02 A3008 RMK A01 T00760019  RH  067%=      5-min Rain = 0
KQU1 170046Z 04011KT 08/02 A3008 RMK A01 T00760020  RH  067%=      5-min Rain = 0
KQU1 170047Z 04011KT 08/02 A3008 RMK A01 T00760019  RH  067%=      5-min Rain = 0
KQU1 170048Z 04008G15KT 08/02 A3008 RMK A01 T00760018  RH  067%=      5-min Rain = 0
KQU1 170049Z 03011G17KT 08/02 A3008 RMK A01 T00760020  RH  068%=      5-min Rain = 0
KQU1 170050Z 03010G16KT 08/02 A3008 RMK A01 T00750018  RH  067%=      5-min Rain = 0
KQU1 170051Z 04010G21KT 08/02 A3008 RMK A01 T00750019  RH  067%=      5-min Rain = 0
KQU1 170052Z 04008KT 08/02 A3008 RMK A01 T00750021  RH  068%=      5-min Rain = 0
KQU1 170053Z 04008G15KT 08/02 A3008 RMK A01 T00750020  RH  068%=      5-min Rain = 0
KQU1 170054Z 05010KT 08/02 A3008 RMK A01 T00750019  RH  068%=      5-min Rain = 0
KQU1 170055Z 05014G23KT 08/02 A3008 RMK A01 T00750019  RH  067%=      5-min Rain = 0
KQU1 170056Z 05008G14KT 08/02 A3008 RMK A01 T00750020  RH  068%=      5-min Rain = 0
KQU1 170057Z 04010G15KT 08/02 A3008 RMK A01 T00750021  RH  069%=      5-min Rain = 0
KQU1 170058Z 04011G17KT 08/02 A3008 RMK A01 T00750019  RH  068%=      5-min Rain = 0
KQU1 170059Z 04008G13KT 07/02 A3008 RMK A01 T00740019  RH  068%=      5-min Rain = 0
KQU1 170100Z 04010G15KT 07/02 A3008 RMK A01 T00740020  RH  068%=      5-min Rain = 0
KQU1 170101Z 04014G21KT 07/02 A3008 RMK A01 T00740019  RH  068%=      5-min Rain = 0
KQU1 170102Z 04010G15KT 07/02 A3008 RMK A01 T00740021  RH  069%=      5-min Rain = 0
KQU1 170103Z 03007KT 07/02 A3008 RMK A01 T00740021  RH  069%=      5-min Rain = 0
KQU1 170104Z 04007G13KT 07/02 A3008 RMK A01 T00740023  RH  070%=      5-min Rain = 0
KQU1 170105Z 03009G19KT 07/02 A3008 RMK A01 T00740022  RH  070%=      5-min Rain = 0
KQU1 170106Z 05009KT 07/02 A3008 RMK A01 T00730021  RH  069%=      5-min Rain = 0
KQU1 170107Z 04009G14KT 07/02 A3008 RMK A01 T00730021  RH  069%=      5-min Rain = 0
KQU1 170108Z 03010KT 07/02 A3008 RMK A01 T00730021  RH  069%=      5-min Rain = 0
KQU1 170109Z 03008G13KT 07/02 A3008 RMK A01 T00730023  RH  070%=      5-min Rain = 0
KQU1 170110Z 03008G13KT 07/02 A3008 RMK A01 T00730023  RH  070%=      5-min Rain = 0
KQU1 170111Z 04012G19KT 07/02 A3008 RMK A01 T00730018  RH  068%=      5-min Rain = 0
KQU1 170112Z 04010G17KT 07/02 A3008 RMK A01 T00730018  RH  068%=      5-min Rain = 0
KQU1 170113Z 04009G14KT 07/02 A3008 RMK A01 T00720018  RH  068%=      5-min Rain = 0
KQU1 170114Z 04009G20KT 07/02 A3008 RMK A01 T00720018  RH  068%=      5-min Rain = 0
KQU1 170115Z 03012G22KT 07/02 A3007 RMK A01 T00720016  RH  068%=      5-min Rain = 0
KQU1 170116Z 04009G15KT 07/02 A3008 RMK A01 T00720018  RH  068%=      5-min Rain = 0
KQU1 170117Z 05007G15KT 07/02 A3008 RMK A01 T00720018  RH  069%=      5-min Rain = 0
KQU1 170118Z 04010G18KT 07/02 A3008 RMK A01 T00720018  RH  068%=      5-min Rain = 0
KQU1 170119Z 05009KT 07/02 A3008 RMK A01 T00720018  RH  069%=      5-min Rain = 0
KQU1 170120Z 05009G15KT 07/02 A3008 RMK A01 T00720018  RH  069%=      5-min Rain = 0
KQU1 170121Z 05009G17KT 07/02 A3008 RMK A01 T00720019  RH  069%=      5-min Rain = 0
KQU1 170122Z 05013G18KT 07/02 A3008 RMK A01 T00720017  RH  068%=      5-min Rain = 0
KQU1 170123Z 04014G20KT 07/02 A3008 RMK A01 T00720017  RH  068%=      5-min Rain = 0
KQU1 170124Z 05009G15KT 07/02 A3008 RMK A01 T00720018  RH  069%=      5-min Rain = 0
KQU1 170125Z 05010G15KT 07/02 A3008 RMK A01 T00710018  RH  069%=      5-min Rain = 0
KQU1 170126Z 05011KT 07/02 A3008 RMK A01 T00710018  RH  069%=      5-min Rain = 0
KQU1 170127Z 04010G17KT 07/02 A3008 RMK A01 T00710019  RH  069%=      5-min Rain = 0
KQU1 170128Z 04008G14KT 07/02 A3008 RMK A01 T00710020  RH  070%=      5-min Rain = 0
KQU1 170129Z 05008KT 07/02 A3008 RMK A01 T00710021  RH  070%=      5-min Rain = 0
KQU1 170130Z 05009G16KT 07/02 A3008 RMK A01 T00710020  RH  070%=      5-min Rain = 0
KQU1 170131Z 05014G20KT 07/02 A3008 RMK A01 T00710017  RH  069%=      5-min Rain = 0
KQU1 170132Z 04009G17KT 07/02 A3008 RMK A01 T00710018  RH  069%=      5-min Rain = 0
KQU1 170133Z 05011G19KT 07/02 A3008 RMK A01 T00710018  RH  069%=      5-min Rain = 0
KQU1 170134Z 05014G19KT 07/02 A3008 RMK A01 T00710017  RH  069%=      5-min Rain = 0
KQU1 170135Z 05012G22KT 07/02 A3008 RMK A01 T00710017  RH  069%=      5-min Rain = 0
KQU1 170136Z 05011G16KT 07/02 A3008 RMK A01 T00710017  RH  069%=      5-min Rain = 0
KQU1 170137Z 04007G13KT 07/02 A3009 RMK A01 T00710019  RH  069%=      5-min Rain = 0
KQU1 170138Z 05012G17KT 07/02 A3008 RMK A01 T00710017  RH  069%=      5-min Rain = 0
KQU1 170139Z 05009G15KT 07/02 A3008 RMK A01 T00710019  RH  069%=      5-min Rain = 0
KQU1 170140Z 05011KT 07/02 A3008 RMK A01 T00710019  RH  070%=      5-min Rain = 0
KQU1 170141Z 05012KT 07/02 A3009 RMK A01 T00710018  RH  069%=      5-min Rain = 0
KQU1 170142Z 04008KT 07/02 A3009 RMK A01 T00710019  RH  070%=      5-min Rain = 0
KQU1 170143Z 05007KT 07/02 A3009 RMK A01 T00710020  RH  070%=      5-min Rain = 0
KQU1 170144Z 05011G17KT 07/02 A3009 RMK A01 T00710019  RH  070%=      5-min Rain = 0
KQU1 170145Z 05011G16KT 07/02 A3009 RMK A01 T00710019  RH  069%=      5-min Rain = 0
KQU1 170146Z 04008G13KT 07/02 A3009 RMK A01 T00710020  RH  070%=      5-min Rain = 0
KQU1 170147Z 05008G17KT 07/02 A301 RMK A01 T00710020  RH  070%=      5-min Rain = 0
KQU1 170148Z 05008KT 07/02 A301 RMK A01 T00710020  RH  070%=      5-min Rain = 0
KQU1 170149Z 03009G17KT 07/02 A301 RMK A01 T00710019  RH  070%=      5-min Rain = 0
KQU1 170150Z 03006G12KT 07/02 A301 RMK A01 T00710019  RH  070%=      5-min Rain = 0
KQU1 170151Z 04008G14KT 07/02 A301 RMK A01 T00710019  RH  070%=      5-min Rain = 0
KQU1 170152Z 04006KT 07/02 A301 RMK A01 T00710020  RH  070%=      5-min Rain = 0
KQU1 170153Z 04005KT 07/02 A301 RMK A01 T00700021  RH  071%=      5-min Rain = 0
KQU1 170154Z 04008G13KT 07/02 A301 RMK A01 T00700020  RH  070%=      5-min Rain = 0
KQU1 170155Z 04006KT 07/02 A301 RMK A01 T00700020  RH  070%=      5-min Rain = 0
KQU1 170156Z 04008KT 07/02 A3011 RMK A01 T00700021  RH  071%=      5-min Rain = 0
KQU1 170157Z 04011G16KT 07/02 A3011 RMK A01 T00700020  RH  070%=      5-min Rain = 0
KQU1 170158Z 03011G17KT 07/02 A3011 RMK A01 T00700016  RH  068%=      5-min Rain = 0
KQU1 170159Z 03009G15KT 07/02 A3011 RMK A01 T00700017  RH  069%=      5-min Rain = 0
KQU1 170200Z 04011G17KT 07/02 A3011 RMK A01 T00700016  RH  068%=      5-min Rain = 0
KQU1 170201Z 04011KT 07/02 A3011 RMK A01 T00700016  RH  068%=      5-min Rain = 0
KQU1 170202Z 03010G15KT 07/02 A3011 RMK A01 T00700017  RH  069%=      5-min Rain = 0
KQU1 170203Z 04008G15KT 07/02 A3011 RMK A01 T00700017  RH  069%=      5-min Rain = 0
KQU1 170204Z 05009G14KT 07/02 A3011 RMK A01 T00700018  RH  069%=      5-min Rain = 0
KQU1 170205Z 03006G11KT 07/02 A3012 RMK A01 T00700019  RH  070%=      5-min Rain = 0
KQU1 170206Z 03008G16KT 07/02 A3012 RMK A01 T00700018  RH  069%=      5-min Rain = 0
KQU1 170207Z 03009G14KT 07/02 A3012 RMK A01 T00700016  RH  069%=      5-min Rain = 0
KQU1 170208Z 02006KT 07/02 A3012 RMK A01 T00700018  RH  070%=      5-min Rain = 0
KQU1 170209Z 04006KT 07/02 A3012 RMK A01 T00700018  RH  069%=      5-min Rain = 0
KQU1 170210Z 04007KT 07/02 A3012 RMK A01 T00700019  RH  070%=      5-min Rain = 0
KQU1 170211Z 04008G13KT 07/02 A3012 RMK A01 T00700018  RH  070%=      5-min Rain = 0
KQU1 170212Z 03005KT 07/02 A3013 RMK A01 T00700020  RH  071%=      5-min Rain = 0
KQU1 170213Z 03004KT 07/02 A3013 RMK A01 T00700020  RH  071%=      5-min Rain = 0
KQU1 170214Z 04007KT 07/02 A3013 RMK A01 T00700020  RH  070%=      5-min Rain = 0
KQU1 170215Z 05007G13KT 07/02 A3013 RMK A01 T00700019  RH  070%=      5-min Rain = 0
KQU1 170216Z 05007G16KT 07/02 A3013 RMK A01 T00690017  RH  069%=      5-min Rain = 0
KQU1 170217Z 04007KT 07/02 A3013 RMK A01 T00690020  RH  071%=      5-min Rain = 0
KQU1 170218Z 05007KT 07/02 A3013 RMK A01 T00690019  RH  071%=      5-min Rain = 0
KQU1 170219Z 04010G16KT 07/02 A3013 RMK A01 T00690018  RH  070%=      5-min Rain = 0
KQU1 170220Z 03008G13KT 07/02 A3014 RMK A01 T00690016  RH  069%=      5-min Rain = 0
KQU1 170221Z 05006KT 07/02 A3014 RMK A01 T00690016  RH  069%=      5-min Rain = 0
KQU1 170222Z 04008G13KT 07/02 A3014 RMK A01 T00690017  RH  069%=      5-min Rain = 0
KQU1 170223Z 03006G11KT 07/02 A3014 RMK A01 T00690015  RH  069%=      5-min Rain = 0
KQU1 170224Z 05006G11KT 07/02 A3014 RMK A01 T00690016  RH  069%=      5-min Rain = 0
KQU1 170225Z 04009G14KT 07/02 A3014 RMK A01 T00690015  RH  069%=      5-min Rain = 0
KQU1 170226Z 04006KT 07/02 A3014 RMK A01 T00690017  RH  069%=      5-min Rain = 0
KQU1 170227Z 04007G12KT 07/02 A3014 RMK A01 T00680016  RH  069%=      5-min Rain = 0
KQU1 170228Z 04007G14KT 07/02 A3014 RMK A01 T00680016  RH  069%=      5-min Rain = 0
KQU1 170229Z 05010G16KT 07/01 A3014 RMK A01 T00680014  RH  068%=      5-min Rain = 0
KQU1 170230Z 05007G16KT 07/01 A3014 RMK A01 T00680014  RH  069%=      5-min Rain = 0
KQU1 170231Z 04007KT 07/01 A3014 RMK A01 T00680014  RH  069%=      5-min Rain = 0
KQU1 170232Z 05010G15KT 07/01 A3014 RMK A01 T00680013  RH  068%=      5-min Rain = 0
KQU1 170233Z 05009G15KT 07/01 A3014 RMK A01 T00680014  RH  069%=      5-min Rain = 0
KQU1 170234Z 04007KT 07/01 A3014 RMK A01 T00670014  RH  069%=      5-min Rain = 0
KQU1 170235Z 04009G14KT 07/01 A3015 RMK A01 T00670014  RH  069%=      5-min Rain = 0
KQU1 170236Z 04006KT 07/01 A3015 RMK A01 T00670014  RH  069%=      5-min Rain = 0
KQU1 170237Z 04008G15KT 07/01 A3015 RMK A01 T00670014  RH  069%=      5-min Rain = 0
KQU1 170238Z 03008G14KT 07/01 A3015 RMK A01 T00670013  RH  069%=      5-min Rain = 0
KQU1 170239Z 04005KT 07/02 A3015 RMK A01 T00670015  RH  069%=      5-min Rain = 0
KQU1 170240Z 03008KT 07/01 A3015 RMK A01 T00670014  RH  069%=      5-min Rain = 0
KQU1 170241Z 03007KT 07/02 A3015 RMK A01 T00670015  RH  070%=      5-min Rain = 0
KQU1 170242Z 03006KT 07/02 A3015 RMK A01 T00660015  RH  070%=      5-min Rain = 0
KQU1 170243Z 03009KT 07/01 A3015 RMK A01 T00660014  RH  069%=      5-min Rain = 0
KQU1 170244Z 03008KT 07/01 A3016 RMK A01 T00660014  RH  069%=      5-min Rain = 0
KQU1 170245Z 04006KT 07/01 A3016 RMK A01 T00660013  RH  069%=      5-min Rain = 0
KQU1 170246Z 04006G12KT 07/01 A3016 RMK A01 T00660014  RH  070%=      5-min Rain = 0
KQU1 170247Z 03007KT 07/01 A3016 RMK A01 T00660014  RH  069%=      5-min Rain = 0
KQU1 170248Z 03006KT 07/02 A3016 RMK A01 T00660015  RH  070%=      5-min Rain = 0
KQU1 170249Z 04005KT 07/01 A3016 RMK A01 T00650014  RH  070%=      5-min Rain = 0
KQU1 170250Z 03004KT 07/01 A3016 RMK A01 T00650014  RH  070%=      5-min Rain = 0
KQU1 170251Z 04006KT 07/01 A3016 RMK A01 T00650014  RH  070%=      5-min Rain = 0
KQU1 170252Z 05006KT 07/01 A3016 RMK A01 T00650014  RH  070%=      5-min Rain = 0
KQU1 170253Z 04004G9KT 07/02 A3016 RMK A01 T00650015  RH  071%=      5-min Rain = 0
KQU1 170254Z 04005KT 07/02 A3016 RMK A01 T00650015  RH  071%=      5-min Rain = 0
KQU1 170255Z 03005KT 06/02 A3017 RMK A01 T00640015  RH  071%=      5-min Rain = 0
KQU1 170256Z 05003KT 06/02 A3017 RMK A01 T00640015  RH  071%=      5-min Rain = 0
KQU1 170257Z 03006KT 06/02 A3017 RMK A01 T00640015  RH  071%=      5-min Rain = 0
KQU1 170258Z 04006KT 06/02 A3017 RMK A01 T00640015  RH  071%=      5-min Rain = 0
KQU1 170259Z 03007KT 06/01 A3017 RMK A01 T00640014  RH  071%=      5-min Rain = 0
KQU1 170300Z 04005KT 06/02 A3017 RMK A01 T00640015  RH  071%=      5-min Rain = 0
KQU1 170301Z 03006KT 06/02 A3017 RMK A01 T00640016  RH  071%=      5-min Rain = 0
KQU1 170302Z 03005KT 06/02 A3017 RMK A01 T00640016  RH  071%=      5-min Rain = 0
KQU1 170303Z 04006G11KT 06/02 A3017 RMK A01 T00630015  RH  071%=      5-min Rain = 0
KQU1 170304Z 03007KT 06/01 A3017 RMK A01 T00630014  RH  071%=      5-min Rain = 0
KQU1 170305Z 03006KT 06/02 A3017 RMK A01 T00630015  RH  071%=      5-min Rain = 0
KQU1 170306Z 03007KT 06/02 A3017 RMK A01 T00630015  RH  071%=      5-min Rain = 0
KQU1 170307Z 03007KT 06/02 A3017 RMK A01 T00630015  RH  071%=      5-min Rain = 0
KQU1 170308Z 04006KT 06/02 A3017 RMK A01 T00630015  RH  072%=      5-min Rain = 0
KQU1 170309Z 04008KT 06/01 A3017 RMK A01 T00620014  RH  071%=      5-min Rain = 0
KQU1 170310Z 03007KT 06/01 A3017 RMK A01 T00620014  RH  071%=      5-min Rain = 0
KQU1 170311Z 03008KT 06/01 A3017 RMK A01 T00620014  RH  071%=      5-min Rain = 0
KQU1 170312Z 03007KT 06/01 A3017 RMK A01 T00620014  RH  071%=      5-min Rain = 0
KQU1 170313Z 03005KT 06/02 A3017 RMK A01 T00620015  RH  072%=      5-min Rain = 0
KQU1 170314Z 04008KT 06/01 A3017 RMK A01 T00620014  RH  071%=      5-min Rain = 0
KQU1 170315Z 04007KT 06/01 A3017 RMK A01 T00620014  RH  071%=      5-min Rain = 0
KQU1 170316Z 03005KT 06/02 A3017 RMK A01 T00620015  RH  072%=      5-min Rain = 0
KQU1 170317Z 03006KT 06/02 A3017 RMK A01 T00620016  RH  072%=      5-min Rain = 0
KQU1 170318Z 04006KT 06/01 A3017 RMK A01 T00610014  RH  072%=      5-min Rain = 0
KQU1 170319Z 04006KT 06/02 A3017 RMK A01 T00610016  RH  073%=      5-min Rain = 0
KQU1 170320Z 03007KT 06/02 A3017 RMK A01 T00610015  RH  073%=      5-min Rain = 0
KQU1 170321Z 03006KT 06/02 A3017 RMK A01 T00610015  RH  073%=      5-min Rain = 0
KQU1 170322Z 03007KT 06/02 A3017 RMK A01 T00610015  RH  073%=      5-min Rain = 0
KQU1 170323Z 04006KT 06/01 A3017 RMK A01 T00600014  RH  072%=      5-min Rain = 0
KQU1 170324Z 03006KT 06/02 A3017 RMK A01 T00600016  RH  073%=      5-min Rain = 0
KQU1 170325Z 03007KT 06/02 A3017 RMK A01 T00600015  RH  073%=      5-min Rain = 0
KQU1 170326Z 04007KT 06/01 A3017 RMK A01 T00600014  RH  072%=      5-min Rain = 0
KQU1 170327Z 04007KT 06/02 A3017 RMK A01 T00600015  RH  073%=      5-min Rain = 0
KQU1 170328Z 03005KT 06/02 A3017 RMK A01 T00600015  RH  073%=      5-min Rain = 0
KQU1 170329Z 04005KT 06/02 A3017 RMK A01 T00600015  RH  073%=      5-min Rain = 0
KQU1 170330Z 04006KT 06/02 A3017 RMK A01 T00600015  RH  073%=      5-min Rain = 0
KQU1 170331Z 04005KT 06/02 A3017 RMK A01 T00600015  RH  073%=      5-min Rain = 0
KQU1 170332Z 04004KT 06/02 A3017 RMK A01 T00600016  RH  073%=      5-min Rain = 0
KQU1 170333Z 04004KT 06/02 A3017 RMK A01 T00600017  RH  074%=      5-min Rain = 0
KQU1 170334Z 04004KT 06/02 A3017 RMK A01 T00600017  RH  074%=      5-min Rain = 0
KQU1 170335Z 05005KT 06/02 A3017 RMK A01 T00600018  RH  074%=      5-min Rain = 0
KQU1 170336Z 05006KT 06/02 A3016 RMK A01 T00590017  RH  074%=      5-min Rain = 0
KQU1 170337Z 05008KT 06/02 A3016 RMK A01 T00590016  RH  074%=      5-min Rain = 0
KQU1 170338Z 05007KT 06/02 A3016 RMK A01 T00590016  RH  074%=      5-min Rain = 0
KQU1 170339Z 04007KT 06/02 A3016 RMK A01 T00590017  RH  074%=      5-min Rain = 0
KQU1 170340Z 04007KT 06/02 A3016 RMK A01 T00590017  RH  074%=      5-min Rain = 0
KQU1 170341Z 05005KT 06/02 A3016 RMK A01 T00590017  RH  075%=      5-min Rain = 0
KQU1 170342Z 04007KT 06/02 A3016 RMK A01 T00580016  RH  074%=      5-min Rain = 0
KQU1 170343Z 05007KT 06/02 A3015 RMK A01 T00580016  RH  074%=      5-min Rain = 0
KQU1 170344Z 05006KT 06/02 A3015 RMK A01 T00580016  RH  075%=      5-min Rain = 0
KQU1 170345Z 04006KT 06/02 A3015 RMK A01 T00580016  RH  075%=      5-min Rain = 0
KQU1 170346Z 05007KT 06/02 A3015 RMK A01 T00580016  RH  075%=      5-min Rain = 0
KQU1 170347Z 05006KT 06/02 A3015 RMK A01 T00580017  RH  075%=      5-min Rain = 0
KQU1 170348Z 05008KT 06/02 A3015 RMK A01 T00570017  RH  075%=      5-min Rain = 0
KQU1 170349Z 05006KT 06/02 A3015 RMK A01 T00570017  RH  075%=      5-min Rain = 0
KQU1 170350Z 05006KT 06/02 A3015 RMK A01 T00570018  RH  076%=      5-min Rain = 0
KQU1 170351Z 05006KT 06/02 A3015 RMK A01 T00570017  RH  075%=      5-min Rain = 0
KQU1 170352Z 05007KT 06/02 A3015 RMK A01 T00570016  RH  075%=      5-min Rain = 0
KQU1 170353Z 05005KT 06/02 A3015 RMK A01 T00570017  RH  075%=      5-min Rain = 0
KQU1 170354Z 05005KT 06/02 A3015 RMK A01 T00570016  RH  075%=      5-min Rain = 0
KQU1 170355Z 04004KT 06/02 A3015 RMK A01 T00570016  RH  075%=      5-min Rain = 0
KQU1 170356Z 04005KT 06/02 A3015 RMK A01 T00570016  RH  075%=      5-min Rain = 0
KQU1 170357Z 04004KT 06/02 A3015 RMK A01 T00560016  RH  075%=      5-min Rain = 0
KQU1 170358Z 03005KT 06/02 A3015 RMK A01 T00560015  RH  075%=      5-min Rain = 0
KQU1 170359Z 04006KT 06/02 A3015 RMK A01 T00560015  RH  075%=      5-min Rain = 0
KQU1 170400Z 03006KT 06/02 A3015 RMK A01 T00560015  RH  075%=      5-min Rain = 0
KQU1 170401Z 03006KT 06/02 A3015 RMK A01 T00560015  RH  075%=      5-min Rain = 0
KQU1 170402Z 03005KT 06/02 A3015 RMK A01 T00550015  RH  075%=      5-min Rain = 0
KQU1 170403Z 03007KT 06/02 A3015 RMK A01 T00550015  RH  075%=      5-min Rain = 0
KQU1 170404Z 02004KT 06/02 A3016 RMK A01 T00550015  RH  076%=      5-min Rain = 0
KQU1 170405Z 02005KT 06/02 A3016 RMK A01 T00550016  RH  076%=      5-min Rain = 0
KQU1 170406Z 03006KT 05/02 A3016 RMK A01 T00540015  RH  076%=      5-min Rain = 0
KQU1 170407Z 03005KT 05/02 A3016 RMK A01 T00540015  RH  076%=      5-min Rain = 0
KQU1 170408Z 03005KT 05/02 A3016 RMK A01 T00540015  RH  076%=      5-min Rain = 0
KQU1 170409Z 03005KT 05/02 A3016 RMK A01 T00540016  RH  076%=      5-min Rain = 0
KQU1 170410Z 03005KT 05/02 A3016 RMK A01 T00540016  RH  076%=      5-min Rain = 0
KQU1 170411Z 03006KT 05/02 A3016 RMK A01 T00540015  RH  076%=      5-min Rain = 0
KQU1 170412Z 03007KT 05/02 A3016 RMK A01 T00540016  RH  076%=      5-min Rain = 0
KQU1 170413Z 03006KT 05/02 A3016 RMK A01 T00540015  RH  076%=      5-min Rain = 0
KQU1 170414Z 03006KT 05/02 A3016 RMK A01 T00540016  RH  076%=      5-min Rain = 0
KQU1 170415Z 03005KT 05/02 A3016 RMK A01 T00540016  RH  076%=      5-min Rain = 0
KQU1 170416Z 03004KT 05/02 A3016 RMK A01 T00540016  RH  076%=      5-min Rain = 0
KQU1 170417Z 02005KT 05/02 A3016 RMK A01 T00540016  RH  076%=      5-min Rain = 0
KQU1 170418Z 03004KT 05/02 A3016 RMK A01 T00540016  RH  076%=      5-min Rain = 0
KQU1 170419Z 03005KT 05/02 A3016 RMK A01 T00540016  RH  076%=      5-min Rain = 0
KQU1 170420Z 03005KT 05/01 A3016 RMK A01 T00540014  RH  076%=      5-min Rain = 0
KQU1 170421Z 03004KT 05/02 A3016 RMK A01 T00540015  RH  076%=      5-min Rain = 0
KQU1 170422Z 03004KT 05/02 A3016 RMK A01 T00540015  RH  076%=      5-min Rain = 0
KQU1 170423Z 02005KT 06/02 A3016 RMK A01 T00550015  RH  076%=      5-min Rain = 0
KQU1 170424Z 03006KT 05/02 A3016 RMK A01 T00540015  RH  076%=      5-min Rain = 0
KQU1 170425Z 02006KT 06/02 A3016 RMK A01 T00550015  RH  075%=      5-min Rain = 0
KQU1 170426Z 03005KT 06/02 A3016 RMK A01 T00550015  RH  076%=      5-min Rain = 0
KQU1 170427Z 02005KT 06/02 A3016 RMK A01 T00550016  RH  076%=      5-min Rain = 0
KQU1 170428Z 03006KT 06/02 A3016 RMK A01 T00550015  RH  076%=      5-min Rain = 0
KQU1 170429Z 03005G10KT 06/01 A3016 RMK A01 T00550013  RH  075%=      5-min Rain = 0
KQU1 170430Z 03004KT 06/02 A3016 RMK A01 T00550015  RH  075%=      5-min Rain = 0
KQU1 170431Z 02005KT 06/02 A3017 RMK A01 T00550015  RH  075%=      5-min Rain = 0
KQU1 170432Z 03005KT 06/02 A3017 RMK A01 T00550015  RH  075%=      5-min Rain = 0
KQU1 170433Z 02005KT 06/02 A3017 RMK A01 T00550015  RH  075%=      5-min Rain = 0
KQU1 170434Z 02004KT 06/02 A3017 RMK A01 T00550015  RH  076%=      5-min Rain = 0
KQU1 170435Z 03006KT 06/02 A3017 RMK A01 T00550015  RH  075%=      5-min Rain = 0
KQU1 170436Z 03005KT 06/02 A3017 RMK A01 T00550015  RH  075%=      5-min Rain = 0
KQU1 170437Z 02006KT 06/02 A3017 RMK A01 T00550016  RH  076%=      5-min Rain = 0
KQU1 170438Z 02005KT 06/02 A3017 RMK A01 T00550015  RH  075%=      5-min Rain = 0
KQU1 170439Z 03005KT 06/02 A3017 RMK A01 T00550015  RH  075%=      5-min Rain = 0
KQU1 170440Z 03005KT 06/02 A3017 RMK A01 T00550015  RH  075%=      5-min Rain = 0
KQU1 170441Z 03006KT 06/02 A3016 RMK A01 T00550015  RH  075%=      5-min Rain = 0
KQU1 170442Z 02005KT 06/01 A3016 RMK A01 T00550014  RH  075%=      5-min Rain = 0
KQU1 170443Z 03008KT 06/01 A3016 RMK A01 T00550013  RH  074%=      5-min Rain = 0
KQU1 170444Z 02006KT 06/01 A3016 RMK A01 T00560013  RH  074%=      5-min Rain = 0
KQU1 170445Z 02006KT 06/01 A3016 RMK A01 T00560014  RH  074%=      5-min Rain = 0
KQU1 170446Z 03007KT 06/02 A3016 RMK A01 T00560015  RH  075%=      5-min Rain = 0
KQU1 170447Z 03005KT 06/01 A3016 RMK A01 T00560014  RH  075%=      5-min Rain = 0
KQU1 170448Z 03006KT 06/01 A3016 RMK A01 T00560014  RH  074%=      5-min Rain = 0
KQU1 170449Z 02008KT 06/01 A3016 RMK A01 T00560013  RH  074%=      5-min Rain = 0
KQU1 170450Z 02007KT 06/01 A3016 RMK A01 T00560013  RH  074%=      5-min Rain = 0
KQU1 170451Z 03006KT 06/01 A3016 RMK A01 T00560014  RH  074%=      5-min Rain = 0
KQU1 170452Z 02006G11KT 06/01 A3016 RMK A01 T00560014  RH  074%=      5-min Rain = 0
KQU1 170453Z 03008KT 06/01 A3016 RMK A01 T00560014  RH  074%=      5-min Rain = 0
KQU1 170454Z 03007KT 06/01 A3016 RMK A01 T00560013  RH  074%=      5-min Rain = 0
KQU1 170455Z 03008KT 06/01 A3016 RMK A01 T00560013  RH  074%=      5-min Rain = 0
KQU1 170456Z 03007KT 06/01 A3016 RMK A01 T00560012  RH  073%=      5-min Rain = 0
KQU1 170457Z 02007KT 06/01 A3016 RMK A01 T00560013  RH  074%=      5-min Rain = 0
KQU1 170458Z 03008KT 06/01 A3016 RMK A01 T00560013  RH  074%=      5-min Rain = 0
KQU1 170459Z 02006KT 06/01 A3016 RMK A01 T00560012  RH  073%=      5-min Rain = 0

Page generated in 0.0654 seconds.